Observation data for Fort Lancaster on 10/17/2019      Previous  Date       Current Mesonet Observations  Soil Data  Daily Summary Page  Observations in Plain Language
KLA1 170500Z 15000KT 13/01 A3015 RMK A01 T01260010  RH  045%=      5-min Rain = 0
KLA1 170501Z 14001KT 13/01 A3015 RMK A01 T01260011  RH  046%=      5-min Rain = 0
KLA1 170502Z 13001KT 13/01 A3015 RMK A01 T01250013  RH  047%=      5-min Rain = 0
KLA1 170503Z 12002KT 12/01 A3015 RMK A01 T01230013  RH  047%=      5-min Rain = 0
KLA1 170504Z 13002KT 12/01 A3015 RMK A01 T01220008  RH  046%=      5-min Rain = 0
KLA1 170505Z 13002KT 12/01 A3015 RMK A01 T01220009  RH  046%=      5-min Rain = 0
KLA1 170506Z 11002KT 12/01 A3014 RMK A01 T01230005  RH  045%=      5-min Rain = 0
KLA1 170507Z 12003KT 12/01 A3014 RMK A01 T01240006  RH  045%=      5-min Rain = 0
KLA1 170508Z 12002KT 12/01 A3014 RMK A01 T01240009  RH  045%=      5-min Rain = 0
KLA1 170509Z 13003KT 12/01 A3014 RMK A01 T01240012  RH  046%=      5-min Rain = 0
KLA1 170510Z 13002KT 12/01 A3014 RMK A01 T01240011  RH  046%=      5-min Rain = 0
KLA1 170511Z 13003KT 12/01 A3014 RMK A01 T01240008  RH  045%=      5-min Rain = 0
KLA1 170512Z 13003KT 13/01 A3014 RMK A01 T01250009  RH  045%=      5-min Rain = 0
KLA1 170513Z 12002KT 13/01 A3014 RMK A01 T01260007  RH  044%=      5-min Rain = 0
KLA1 170514Z 11002KT 13/01 A3014 RMK A01 T01270006  RH  044%=      5-min Rain = 0
KLA1 170515Z 14001KT 13/01 A3014 RMK A01 T01280006  RH  043%=      5-min Rain = 0
KLA1 170516Z 14002KT 13/01 A3014 RMK A01 T01290009  RH  044%=      5-min Rain = 0
KLA1 170517Z 16002KT 13/01 A3014 RMK A01 T01290009  RH  044%=      5-min Rain = 0
KLA1 170518Z 17001KT 13/01 A3014 RMK A01 T01280012  RH  045%=      5-min Rain = 0
KLA1 170519Z 19001KT 13/01 A3014 RMK A01 T01280007  RH  043%=      5-min Rain = 0
KLA1 170520Z 24001KT 13/01 A3014 RMK A01 T01280010  RH  044%=      5-min Rain = 0
KLA1 170521Z 25001KT 13/02 A3014 RMK A01 T01280015  RH  046%=      5-min Rain = 0
KLA1 170522Z 26002KT 13/02 A3014 RMK A01 T01270015  RH  047%=      5-min Rain = 0
KLA1 170523Z 27002KT 13/02 A3014 RMK A01 T01250015  RH  047%=      5-min Rain = 0
KLA1 170524Z 25002KT 12/01 A3014 RMK A01 T01240012  RH  047%=      5-min Rain = 0
KLA1 170525Z 28002KT 12/02 A3014 RMK A01 T01230015  RH  047%=      5-min Rain = 0
KLA1 170526Z 27002KT 12/02 A3014 RMK A01 T01220015  RH  048%=      5-min Rain = 0
KLA1 170527Z 27001KT 12/01 A3014 RMK A01 T01220011  RH  047%=      5-min Rain = 0
KLA1 170528Z 20000KT 12/01 A3014 RMK A01 T01220007  RH  045%=      5-min Rain = 0
KLA1 170529Z 23001KT 12/00 A3014 RMK A01 T01240003  RH  043%=      5-min Rain = 0
KLA1 170530Z 00000KT 13/01 A3014 RMK A01 T01260013  RH  046%=      5-min Rain = 0
KLA1 170531Z 21000KT 13/01 A3014 RMK A01 T01260014  RH  047%=      5-min Rain = 0
KLA1 170532Z 23001KT 13/01 A3014 RMK A01 T01250011  RH  046%=      5-min Rain = 0
KLA1 170533Z 23001KT 12/01 A3014 RMK A01 T01240014  RH  047%=      5-min Rain = 0
KLA1 170534Z 25001KT 12/02 A3014 RMK A01 T01230019  RH  049%=      5-min Rain = 0
KLA1 170535Z 27001KT 12/02 A3014 RMK A01 T01220019  RH  049%=      5-min Rain = 0
KLA1 170536Z 27001KT 12/02 A3014 RMK A01 T01210018  RH  049%=      5-min Rain = 0
KLA1 170537Z 27001KT 12/02 A3014 RMK A01 T01200017  RH  049%=      5-min Rain = 0
KLA1 170538Z 29002KT 12/02 A3014 RMK A01 T01190016  RH  049%=      5-min Rain = 0
KLA1 170539Z 29002KT 12/02 A3014 RMK A01 T01170018  RH  050%=      5-min Rain = 0
KLA1 170540Z 29002KT 12/02 A3014 RMK A01 T01160018  RH  051%=      5-min Rain = 0
KLA1 170541Z 27001KT 12/02 A3014 RMK A01 T01160015  RH  050%=      5-min Rain = 0
KLA1 170542Z 25001KT 12/01 A3014 RMK A01 T01160008  RH  048%=      5-min Rain = 0
KLA1 170543Z 27001KT 12/01 A3014 RMK A01 T01190010  RH  047%=      5-min Rain = 0
KLA1 170544Z 33000KT 12/02 A3014 RMK A01 T01200020  RH  050%=      5-min Rain = 0
KLA1 170545Z 30000KT 12/02 A3014 RMK A01 T01180016  RH  049%=      5-min Rain = 0
KLA1 170546Z 00000KT 12/02 A3014 RMK A01 T01190016  RH  049%=      5-min Rain = 0
KLA1 170547Z 00000KT 12/02 A3013 RMK A01 T01180016  RH  049%=      5-min Rain = 0
KLA1 170548Z 00000KT 12/01 A3013 RMK A01 T01180013  RH  049%=      5-min Rain = 0
KLA1 170549Z 08000KT 12/02 A3013 RMK A01 T01170015  RH  049%=      5-min Rain = 0
KLA1 170550Z 08001KT 12/02 A3013 RMK A01 T01160015  RH  050%=      5-min Rain = 0
KLA1 170551Z 08000KT 12/01 A3013 RMK A01 T01150014  RH  050%=      5-min Rain = 0
KLA1 170552Z 08001KT 12/01 A3013 RMK A01 T01160013  RH  049%=      5-min Rain = 0
KLA1 170553Z 08000KT 12/01 A3013 RMK A01 T01180010  RH  047%=      5-min Rain = 0
KLA1 170554Z 09000KT 12/01 A3013 RMK A01 T01200010  RH  047%=      5-min Rain = 0
KLA1 170555Z 04000KT 12/02 A3013 RMK A01 T01210015  RH  048%=      5-min Rain = 0
KLA1 170556Z 03000KT 12/02 A3013 RMK A01 T01200016  RH  049%=      5-min Rain = 0
KLA1 170557Z 00000KT 12/01 A3013 RMK A01 T01200012  RH  048%=      5-min Rain = 0
KLA1 170558Z 00000KT 12/01 A3013 RMK A01 T01190010  RH  047%=      5-min Rain = 0
KLA1 170559Z 00000KT 12/01 A3013 RMK A01 T01190011  RH  048%=      5-min Rain = 0
KLA1 170600Z 00000KT 12/02 A3013 RMK A01 T01190017  RH  050%=      5-min Rain = 0
KLA1 170601Z 00000KT 12/02 A3013 RMK A01 T01190023  RH  052%=      5-min Rain = 0
KLA1 170602Z 00000KT 12/02 A3013 RMK A01 T01180019  RH  051%=      5-min Rain = 0
KLA1 170603Z 00000KT 12/02 A3013 RMK A01 T01170017  RH  050%=      5-min Rain = 0
KLA1 170604Z 00000KT 12/02 A3013 RMK A01 T01160018  RH  051%=      5-min Rain = 0
KLA1 170605Z 00000KT 12/02 A3013 RMK A01 T01150020  RH  052%=      5-min Rain = 0
KLA1 170606Z 00000KT 12/01 A3013 RMK A01 T01150014  RH  050%=      5-min Rain = 0
KLA1 170607Z 00000KT 11/01 A3013 RMK A01 T01140012  RH  050%=      5-min Rain = 0
KLA1 170608Z 00000KT 11/02 A3013 RMK A01 T01130015  RH  051%=      5-min Rain = 0
KLA1 170609Z 00000KT 11/01 A3013 RMK A01 T01130014  RH  051%=      5-min Rain = 0
KLA1 170610Z 25001KT 11/02 A3013 RMK A01 T01130015  RH  051%=      5-min Rain = 0
KLA1 170611Z 24001KT 11/02 A3013 RMK A01 T01120015  RH  051%=      5-min Rain = 0
KLA1 170612Z 25001KT 11/02 A3013 RMK A01 T01110015  RH  052%=      5-min Rain = 0
KLA1 170613Z 27001KT 11/02 A3013 RMK A01 T01100017  RH  053%=      5-min Rain = 0
KLA1 170614Z 28001KT 11/01 A3013 RMK A01 T01090013  RH  051%=      5-min Rain = 0
KLA1 170615Z 27001KT 11/01 A3013 RMK A01 T01090013  RH  051%=      5-min Rain = 0
KLA1 170616Z 27002KT 11/01 A3013 RMK A01 T01090013  RH  051%=      5-min Rain = 0
KLA1 170617Z 27002KT 11/01 A3013 RMK A01 T01090011  RH  051%=      5-min Rain = 0
KLA1 170618Z 27002KT 11/01 A3013 RMK A01 T01090014  RH  052%=      5-min Rain = 0
KLA1 170619Z 28002KT 11/02 A3013 RMK A01 T01080016  RH  053%=      5-min Rain = 0
KLA1 170620Z 28002KT 11/02 A3013 RMK A01 T01070016  RH  053%=      5-min Rain = 0
KLA1 170621Z 28002KT 11/01 A3013 RMK A01 T01070014  RH  052%=      5-min Rain = 0
KLA1 170622Z 29002KT 11/01 A3013 RMK A01 T01080014  RH  052%=      5-min Rain = 0
KLA1 170623Z 29002KT 11/01 A3013 RMK A01 T01080013  RH  052%=      5-min Rain = 0
KLA1 170624Z 30002KT 11/01 A3013 RMK A01 T01080012  RH  051%=      5-min Rain = 0
KLA1 170625Z 30002KT 11/01 A3013 RMK A01 T01090011  RH  051%=      5-min Rain = 0
KLA1 170626Z 30002KT 11/01 A3013 RMK A01 T01090012  RH  051%=      5-min Rain = 0
KLA1 170627Z 30002KT 11/02 A3013 RMK A01 T01100016  RH  052%=      5-min Rain = 0
KLA1 170628Z 31002KT 11/02 A3013 RMK A01 T01100024  RH  055%=      5-min Rain = 0
KLA1 170629Z 31002KT 11/02 A3013 RMK A01 T01100023  RH  055%=      5-min Rain = 0
KLA1 170630Z 31002KT 11/02 A3013 RMK A01 T01090017  RH  053%=      5-min Rain = 0
KLA1 170631Z 30001KT 11/01 A3013 RMK A01 T01110012  RH  051%=      5-min Rain = 0
KLA1 170632Z 31001KT 11/01 A3013 RMK A01 T01120013  RH  050%=      5-min Rain = 0
KLA1 170633Z 30001KT 11/02 A3013 RMK A01 T01130015  RH  051%=      5-min Rain = 0
KLA1 170634Z 29002KT 11/01 A3013 RMK A01 T01140014  RH  050%=      5-min Rain = 0
KLA1 170635Z 28002KT 11/02 A3013 RMK A01 T01140015  RH  051%=      5-min Rain = 0
KLA1 170636Z 28002KT 11/02 A3013 RMK A01 T01140019  RH  052%=      5-min Rain = 0
KLA1 170637Z 29002KT 11/02 A3013 RMK A01 T01140019  RH  052%=      5-min Rain = 0
KLA1 170638Z 29002KT 11/02 A3013 RMK A01 T01140016  RH  051%=      5-min Rain = 0
KLA1 170639Z 30002KT 11/02 A3013 RMK A01 T01130016  RH  051%=      5-min Rain = 0
KLA1 170640Z 30002KT 11/02 A3013 RMK A01 T01120022  RH  054%=      5-min Rain = 0
KLA1 170641Z 30002KT 11/02 A3013 RMK A01 T01110023  RH  055%=      5-min Rain = 0
KLA1 170642Z 31001KT 11/02 A3013 RMK A01 T01090023  RH  055%=      5-min Rain = 0
KLA1 170643Z 31000KT 11/02 A3013 RMK A01 T01090022  RH  055%=      5-min Rain = 0
KLA1 170644Z 31001KT 11/02 A3013 RMK A01 T01080024  RH  056%=      5-min Rain = 0
KLA1 170645Z 30001KT 11/03 A3013 RMK A01 T01080026  RH  057%=      5-min Rain = 0
KLA1 170646Z 29002KT 11/02 A3013 RMK A01 T01070024  RH  056%=      5-min Rain = 0
KLA1 170647Z 29002KT 11/02 A3013 RMK A01 T01080021  RH  055%=      5-min Rain = 0
KLA1 170648Z 29003KT 11/02 A3013 RMK A01 T01080020  RH  054%=      5-min Rain = 0
KLA1 170649Z 29003KT 11/02 A3013 RMK A01 T01100021  RH  054%=      5-min Rain = 0
KLA1 170650Z 29002KT 11/02 A3013 RMK A01 T01110022  RH  054%=      5-min Rain = 0
KLA1 170651Z 29002KT 11/02 A3013 RMK A01 T01120024  RH  055%=      5-min Rain = 0
KLA1 170652Z 29001KT 11/03 A3013 RMK A01 T01120025  RH  055%=      5-min Rain = 0
KLA1 170653Z 29001KT 11/02 A3013 RMK A01 T01120024  RH  054%=      5-min Rain = 0
KLA1 170654Z 29000KT 11/02 A3013 RMK A01 T01120022  RH  054%=      5-min Rain = 0
KLA1 170655Z 00000KT 11/02 A3013 RMK A01 T01120019  RH  053%=      5-min Rain = 0
KLA1 170656Z 00000KT 11/02 A3013 RMK A01 T01130019  RH  053%=      5-min Rain = 0
KLA1 170657Z 00000KT 11/02 A3013 RMK A01 T01130018  RH  052%=      5-min Rain = 0
KLA1 170658Z 10001KT 11/02 A3013 RMK A01 T01130016  RH  051%=      5-min Rain = 0
KLA1 170659Z 09000KT 11/02 A3013 RMK A01 T01130020  RH  053%=      5-min Rain = 0
KLA1 170700Z 00000KT 11/02 A3013 RMK A01 T01130023  RH  054%=      5-min Rain = 0
KLA1 170701Z 00000KT 11/02 A3013 RMK A01 T01120021  RH  053%=      5-min Rain = 0
KLA1 170702Z 20000KT 11/03 A3013 RMK A01 T01100025  RH  056%=      5-min Rain = 0
KLA1 170703Z 26001KT 11/02 A3013 RMK A01 T01080024  RH  056%=      5-min Rain = 0
KLA1 170704Z 28001KT 11/02 A3013 RMK A01 T01070022  RH  056%=      5-min Rain = 0
KLA1 170705Z 28002KT 11/02 A3013 RMK A01 T01060018  RH  054%=      5-min Rain = 0
KLA1 170706Z 28001KT 11/02 A3013 RMK A01 T01070020  RH  055%=      5-min Rain = 0
KLA1 170707Z 28000KT 11/02 A3013 RMK A01 T01070021  RH  055%=      5-min Rain = 0
KLA1 170708Z 00000KT 11/02 A3013 RMK A01 T01080020  RH  054%=      5-min Rain = 0
KLA1 170709Z 15001KT 11/02 A3013 RMK A01 T01090018  RH  053%=      5-min Rain = 0
KLA1 170710Z 13001KT 11/02 A3013 RMK A01 T01100017  RH  053%=      5-min Rain = 0
KLA1 170711Z 14001KT 11/02 A3013 RMK A01 T01110015  RH  052%=      5-min Rain = 0
KLA1 170712Z 16001KT 11/02 A3013 RMK A01 T01110015  RH  052%=      5-min Rain = 0
KLA1 170713Z 15001KT 11/03 A3013 RMK A01 T01110025  RH  055%=      5-min Rain = 0
KLA1 170714Z 16001KT 11/02 A3013 RMK A01 T01080024  RH  056%=      5-min Rain = 0
KLA1 170715Z 15002KT 11/02 A3013 RMK A01 T01050024  RH  057%=      5-min Rain = 0
KLA1 170716Z 16001KT 10/03 A3013 RMK A01 T01030025  RH  059%=      5-min Rain = 0
KLA1 170717Z 15001KT 10/03 A3013 RMK A01 T01010025  RH  059%=      5-min Rain = 0
KLA1 170718Z 15001KT 10/02 A3013 RMK A01 T01000024  RH  059%=      5-min Rain = 0
KLA1 170719Z 15001KT 10/02 A3013 RMK A01 T01000022  RH  058%=      5-min Rain = 0
KLA1 170720Z 15001KT 10/02 A3013 RMK A01 T01000022  RH  058%=      5-min Rain = 0
KLA1 170721Z 15002KT 10/02 A3013 RMK A01 T01000023  RH  059%=      5-min Rain = 0
KLA1 170722Z 14001KT 10/02 A3013 RMK A01 T01000022  RH  058%=      5-min Rain = 0
KLA1 170723Z 14001KT 10/02 A3012 RMK A01 T01010022  RH  058%=      5-min Rain = 0
KLA1 170724Z 14001KT 10/02 A3012 RMK A01 T01010021  RH  057%=      5-min Rain = 0
KLA1 170725Z 14001KT 10/02 A3012 RMK A01 T01010020  RH  057%=      5-min Rain = 0
KLA1 170726Z 16001KT 10/02 A3012 RMK A01 T01020020  RH  057%=      5-min Rain = 0
KLA1 170727Z 16001KT 10/02 A3012 RMK A01 T01030022  RH  057%=      5-min Rain = 0
KLA1 170728Z 17001KT 10/02 A3012 RMK A01 T01030022  RH  057%=      5-min Rain = 0
KLA1 170729Z 18001KT 10/02 A3012 RMK A01 T01040023  RH  057%=      5-min Rain = 0
KLA1 170730Z 19002KT 11/02 A3012 RMK A01 T01050024  RH  057%=      5-min Rain = 0
KLA1 170731Z 19002KT 11/03 A3012 RMK A01 T01060026  RH  058%=      5-min Rain = 0
KLA1 170732Z 19002KT 11/03 A3012 RMK A01 T01060028  RH  059%=      5-min Rain = 0
KLA1 170733Z 18002KT 11/03 A3012 RMK A01 T01060029  RH  059%=      5-min Rain = 0
KLA1 170734Z 18002KT 11/03 A3012 RMK A01 T01060029  RH  059%=      5-min Rain = 0
KLA1 170735Z 18001KT 11/03 A3012 RMK A01 T01050028  RH  059%=      5-min Rain = 0
KLA1 170736Z 18001KT 11/03 A3012 RMK A01 T01050028  RH  059%=      5-min Rain = 0
KLA1 170737Z 18000KT 11/03 A3013 RMK A01 T01050027  RH  059%=      5-min Rain = 0
KLA1 170738Z 00000KT 11/03 A3013 RMK A01 T01050026  RH  058%=      5-min Rain = 0
KLA1 170739Z 00000KT 11/03 A3013 RMK A01 T01060026  RH  058%=      5-min Rain = 0
KLA1 170740Z 27000KT 11/03 A3012 RMK A01 T01070027  RH  058%=      5-min Rain = 0
KLA1 170741Z 28001KT 11/03 A3012 RMK A01 T01070026  RH  057%=      5-min Rain = 0
KLA1 170742Z 29002KT 11/03 A3012 RMK A01 T01070025  RH  057%=      5-min Rain = 0
KLA1 170743Z 29002KT 11/03 A3012 RMK A01 T01070027  RH  057%=      5-min Rain = 0
KLA1 170744Z 29002KT 11/03 A3012 RMK A01 T01070027  RH  058%=      5-min Rain = 0
KLA1 170745Z 30001KT 11/03 A3012 RMK A01 T01070028  RH  058%=      5-min Rain = 0
KLA1 170746Z 31001KT 11/03 A3012 RMK A01 T01060029  RH  059%=      5-min Rain = 0
KLA1 170747Z 31000KT 11/03 A3012 RMK A01 T01060029  RH  059%=      5-min Rain = 0
KLA1 170748Z 00000KT 11/03 A3012 RMK A01 T01050028  RH  059%=      5-min Rain = 0
KLA1 170749Z 00000KT 10/03 A3012 RMK A01 T01040026  RH  058%=      5-min Rain = 0
KLA1 170750Z 07000KT 10/03 A3012 RMK A01 T01030026  RH  059%=      5-min Rain = 0
KLA1 170751Z 07001KT 10/03 A3012 RMK A01 T01010027  RH  060%=      5-min Rain = 0
KLA1 170752Z 07001KT 10/03 A3012 RMK A01 T01000027  RH  061%=      5-min Rain = 0
KLA1 170753Z 07001KT 10/03 A3012 RMK A01 T00990026  RH  060%=      5-min Rain = 0
KLA1 170754Z 08002KT 10/02 A3012 RMK A01 T00990024  RH  060%=      5-min Rain = 0
KLA1 170755Z 09002KT 10/02 A3012 RMK A01 T01000024  RH  059%=      5-min Rain = 0
KLA1 170756Z 09001KT 10/02 A3012 RMK A01 T01020021  RH  057%=      5-min Rain = 0
KLA1 170757Z 09002KT 11/02 A3012 RMK A01 T01050019  RH  055%=      5-min Rain = 0
KLA1 170758Z 09002KT 11/02 A3012 RMK A01 T01080017  RH  053%=      5-min Rain = 0
KLA1 170759Z 10002KT 11/02 A3012 RMK A01 T01110015  RH  052%=      5-min Rain = 0
KLA1 170800Z 08002KT 12/01 A3012 RMK A01 T01150014  RH  050%=      5-min Rain = 0
KLA1 170801Z 09003KT 12/01 A3012 RMK A01 T01190014  RH  049%=      5-min Rain = 0
KLA1 170802Z 09002KT 12/01 A3012 RMK A01 T01200014  RH  048%=      5-min Rain = 0
KLA1 170803Z 08002KT 12/01 A3012 RMK A01 T01210013  RH  048%=      5-min Rain = 0
KLA1 170804Z 08002KT 12/01 A3011 RMK A01 T01210014  RH  048%=      5-min Rain = 0
KLA1 170805Z 09002KT 12/01 A3011 RMK A01 T01210014  RH  048%=      5-min Rain = 0
KLA1 170806Z 09002KT 12/01 A3011 RMK A01 T01210013  RH  047%=      5-min Rain = 0
KLA1 170807Z 09002KT 12/01 A3011 RMK A01 T01220012  RH  047%=      5-min Rain = 0
KLA1 170808Z 08002KT 12/01 A3011 RMK A01 T01220013  RH  047%=      5-min Rain = 0
KLA1 170809Z 07001KT 12/01 A3011 RMK A01 T01230014  RH  047%=      5-min Rain = 0
KLA1 170810Z 06000KT 12/03 A3011 RMK A01 T01220025  RH  052%=      5-min Rain = 0
KLA1 170811Z 31001KT 12/03 A3011 RMK A01 T01180027  RH  054%=      5-min Rain = 0
KLA1 170812Z 27000KT 12/03 A3011 RMK A01 T01150025  RH  054%=      5-min Rain = 0
KLA1 170813Z 27001KT 11/02 A3011 RMK A01 T01120023  RH  054%=      5-min Rain = 0
KLA1 170814Z 26000KT 11/02 A3011 RMK A01 T01110024  RH  055%=      5-min Rain = 0
KLA1 170815Z 26001KT 11/02 A3011 RMK A01 T01100022  RH  055%=      5-min Rain = 0
KLA1 170816Z 27001KT 11/02 A3011 RMK A01 T01090021  RH  055%=      5-min Rain = 0
KLA1 170817Z 29001KT 11/02 A3011 RMK A01 T01080022  RH  055%=      5-min Rain = 0
KLA1 170818Z 00000KT 11/02 A3011 RMK A01 T01070024  RH  056%=      5-min Rain = 0
KLA1 170819Z 00000KT 11/02 A3011 RMK A01 T01070022  RH  056%=      5-min Rain = 0
KLA1 170820Z 16000KT 11/02 A3011 RMK A01 T01060021  RH  055%=      5-min Rain = 0
KLA1 170821Z 15000KT 11/02 A3011 RMK A01 T01060020  RH  056%=      5-min Rain = 0
KLA1 170822Z 15001KT 11/02 A3011 RMK A01 T01060020  RH  055%=      5-min Rain = 0
KLA1 170823Z 00000KT 11/02 A3011 RMK A01 T01050024  RH  057%=      5-min Rain = 0
KLA1 170824Z 16000KT 10/03 A3011 RMK A01 T01030025  RH  058%=      5-min Rain = 0
KLA1 170825Z 16000KT 10/02 A3011 RMK A01 T01020022  RH  057%=      5-min Rain = 0
KLA1 170826Z 15000KT 10/02 A3011 RMK A01 T01010021  RH  057%=      5-min Rain = 0
KLA1 170827Z 00000KT 10/02 A3011 RMK A01 T01010020  RH  057%=      5-min Rain = 0
KLA1 170828Z 00000KT 10/02 A3011 RMK A01 T01010020  RH  057%=      5-min Rain = 0
KLA1 170829Z 00000KT 10/02 A3011 RMK A01 T01000021  RH  058%=      5-min Rain = 0
KLA1 170830Z 16000KT 10/02 A3011 RMK A01 T01000021  RH  058%=      5-min Rain = 0
KLA1 170831Z 17001KT 10/02 A3011 RMK A01 T00990019  RH  058%=      5-min Rain = 0
KLA1 170832Z 17001KT 10/02 A3011 RMK A01 T00990021  RH  059%=      5-min Rain = 0
KLA1 170833Z 17001KT 10/03 A3011 RMK A01 T00990025  RH  060%=      5-min Rain = 0
KLA1 170834Z 18001KT 10/03 A3011 RMK A01 T00980028  RH  062%=      5-min Rain = 0
KLA1 170835Z 17002KT 10/03 A3011 RMK A01 T00980031  RH  063%=      5-min Rain = 0
KLA1 170836Z 16002KT 10/03 A3011 RMK A01 T00970032  RH  064%=      5-min Rain = 0
KLA1 170837Z 16001KT 10/03 A3011 RMK A01 T00960032  RH  064%=      5-min Rain = 0
KLA1 170838Z 14001KT 10/03 A3011 RMK A01 T00950032  RH  065%=      5-min Rain = 0
KLA1 170839Z 13002KT 10/03 A3011 RMK A01 T00950031  RH  064%=      5-min Rain = 0
KLA1 170840Z 13001KT 09/03 A3011 RMK A01 T00940029  RH  064%=      5-min Rain = 0
KLA1 170841Z 14002KT 09/03 A3011 RMK A01 T00940028  RH  063%=      5-min Rain = 0
KLA1 170842Z 15002KT 10/03 A3011 RMK A01 T00950028  RH  063%=      5-min Rain = 0
KLA1 170843Z 15002KT 10/03 A3011 RMK A01 T00950028  RH  063%=      5-min Rain = 0
KLA1 170844Z 16002KT 10/03 A3011 RMK A01 T00950027  RH  063%=      5-min Rain = 0
KLA1 170845Z 17002KT 10/03 A3011 RMK A01 T00950027  RH  062%=      5-min Rain = 0
KLA1 170846Z 19002KT 10/03 A3011 RMK A01 T00950026  RH  062%=      5-min Rain = 0
KLA1 170847Z 19002KT 10/03 A3011 RMK A01 T00950027  RH  062%=      5-min Rain = 0
KLA1 170848Z 19002KT 10/03 A3011 RMK A01 T00960027  RH  062%=      5-min Rain = 0
KLA1 170849Z 20001KT 10/03 A3011 RMK A01 T00960028  RH  063%=      5-min Rain = 0
KLA1 170850Z 18002KT 10/03 A3011 RMK A01 T00960027  RH  062%=      5-min Rain = 0
KLA1 170851Z 16002KT 10/02 A3011 RMK A01 T00970023  RH  060%=      5-min Rain = 0
KLA1 170852Z 16002KT 10/02 A3011 RMK A01 T00990019  RH  058%=      5-min Rain = 0
KLA1 170853Z 17002KT 10/02 A3011 RMK A01 T01000017  RH  056%=      5-min Rain = 0
KLA1 170854Z 16001KT 10/02 A3011 RMK A01 T01020017  RH  056%=      5-min Rain = 0
KLA1 170855Z 16001KT 10/02 A3011 RMK A01 T01030017  RH  055%=      5-min Rain = 0
KLA1 170856Z 17001KT 10/02 A3011 RMK A01 T01040016  RH  055%=      5-min Rain = 0
KLA1 170857Z 18002KT 10/02 A3011 RMK A01 T01040016  RH  054%=      5-min Rain = 0
KLA1 170858Z 18002KT 10/02 A3011 RMK A01 T01040016  RH  054%=      5-min Rain = 0
KLA1 170859Z 17001KT 10/02 A3011 RMK A01 T01040024  RH  057%=      5-min Rain = 0
KLA1 170900Z 17001KT 10/03 A3011 RMK A01 T01030028  RH  059%=      5-min Rain = 0
KLA1 170901Z 16001KT 10/03 A301 RMK A01 T01020025  RH  059%=      5-min Rain = 0
KLA1 170902Z 14001KT 10/02 A301 RMK A01 T01020018  RH  056%=      5-min Rain = 0
KLA1 170903Z 13001KT 10/02 A301 RMK A01 T01020015  RH  055%=      5-min Rain = 0
KLA1 170904Z 12001KT 10/01 A301 RMK A01 T01030014  RH  054%=      5-min Rain = 0
KLA1 170905Z 11002KT 10/01 A301 RMK A01 T01040014  RH  053%=      5-min Rain = 0
KLA1 170906Z 10003KT 11/01 A301 RMK A01 T01050014  RH  053%=      5-min Rain = 0
KLA1 170907Z 11003KT 11/02 A301 RMK A01 T01060017  RH  054%=      5-min Rain = 0
KLA1 170908Z 11003KT 11/02 A301 RMK A01 T01060019  RH  055%=      5-min Rain = 0
KLA1 170909Z 12002KT 11/02 A301 RMK A01 T01060020  RH  055%=      5-min Rain = 0
KLA1 170910Z 13002KT 11/02 A301 RMK A01 T01050021  RH  056%=      5-min Rain = 0
KLA1 170911Z 11003KT 10/02 A301 RMK A01 T01040019  RH  056%=      5-min Rain = 0
KLA1 170912Z 11003KT 10/02 A301 RMK A01 T01040018  RH  055%=      5-min Rain = 0
KLA1 170913Z 10004KT 10/02 A301 RMK A01 T01040017  RH  055%=      5-min Rain = 0
KLA1 170914Z 10004KT 11/02 A301 RMK A01 T01060018  RH  054%=      5-min Rain = 0
KLA1 170915Z 10004KT 11/02 A301 RMK A01 T01080018  RH  054%=      5-min Rain = 0
KLA1 170916Z 10004KT 11/02 A301 RMK A01 T01090018  RH  053%=      5-min Rain = 0
KLA1 170917Z 10003KT 11/02 A301 RMK A01 T01120018  RH  053%=      5-min Rain = 0
KLA1 170918Z 10004KT 11/02 A301 RMK A01 T01130018  RH  052%=      5-min Rain = 0
KLA1 170919Z 10004KT 12/02 A301 RMK A01 T01150018  RH  052%=      5-min Rain = 0
KLA1 170920Z 11004KT 12/02 A301 RMK A01 T01160019  RH  051%=      5-min Rain = 0
KLA1 170921Z 11004KT 12/02 A301 RMK A01 T01170019  RH  051%=      5-min Rain = 0
KLA1 170922Z 12004KT 12/02 A301 RMK A01 T01180019  RH  051%=      5-min Rain = 0
KLA1 170923Z 12004KT 12/02 A301 RMK A01 T01190019  RH  050%=      5-min Rain = 0
KLA1 170924Z 12004KT 12/02 A301 RMK A01 T01190019  RH  050%=      5-min Rain = 0
KLA1 170925Z 11004KT 12/02 A301 RMK A01 T01200019  RH  050%=      5-min Rain = 0
KLA1 170926Z 11004KT 12/02 A301 RMK A01 T01200020  RH  050%=      5-min Rain = 0
KLA1 170927Z 11005KT 12/02 A301 RMK A01 T01200019  RH  050%=      5-min Rain = 0
KLA1 170928Z 11005KT 12/02 A301 RMK A01 T01200019  RH  050%=      5-min Rain = 0
KLA1 170929Z 11005KT 12/02 A3009 RMK A01 T01210019  RH  050%=      5-min Rain = 0
KLA1 170930Z 10005KT 12/02 A3009 RMK A01 T01220020  RH  049%=      5-min Rain = 0
KLA1 170931Z 11005KT 12/02 A3009 RMK A01 T01230020  RH  049%=      5-min Rain = 0
KLA1 170932Z 10006KT 12/02 A3009 RMK A01 T01240020  RH  049%=      5-min Rain = 0
KLA1 170933Z 10006KT 13/02 A3009 RMK A01 T01260020  RH  048%=      5-min Rain = 0
KLA1 170934Z 11006KT 13/02 A3009 RMK A01 T01280020  RH  048%=      5-min Rain = 0
KLA1 170935Z 11006KT 13/02 A3009 RMK A01 T01290020  RH  048%=      5-min Rain = 0
KLA1 170936Z 11005KT 13/02 A3009 RMK A01 T01290020  RH  047%=      5-min Rain = 0
KLA1 170937Z 11006KT 13/02 A3009 RMK A01 T01300020  RH  047%=      5-min Rain = 0
KLA1 170938Z 11005KT 13/02 A3009 RMK A01 T01300021  RH  047%=      5-min Rain = 0
KLA1 170939Z 11005KT 13/02 A3009 RMK A01 T01300021  RH  047%=      5-min Rain = 0
KLA1 170940Z 11005KT 13/02 A3009 RMK A01 T01310021  RH  047%=      5-min Rain = 0
KLA1 170941Z 11004KT 13/02 A3009 RMK A01 T01310021  RH  047%=      5-min Rain = 0
KLA1 170942Z 10004KT 13/02 A3009 RMK A01 T01310021  RH  047%=      5-min Rain = 0
KLA1 170943Z 11004KT 13/02 A3009 RMK A01 T01310021  RH  047%=      5-min Rain = 0
KLA1 170944Z 11004KT 13/02 A3009 RMK A01 T01310021  RH  047%=      5-min Rain = 0
KLA1 170945Z 11004KT 13/02 A3009 RMK A01 T01320022  RH  047%=      5-min Rain = 0
KLA1 170946Z 11005KT 13/02 A3009 RMK A01 T01310022  RH  048%=      5-min Rain = 0
KLA1 170947Z 10004KT 13/02 A3009 RMK A01 T01310022  RH  047%=      5-min Rain = 0
KLA1 170948Z 11005KT 13/02 A3009 RMK A01 T01310022  RH  048%=      5-min Rain = 0
KLA1 170949Z 11005KT 13/02 A3009 RMK A01 T01310023  RH  048%=      5-min Rain = 0
KLA1 170950Z 11005KT 13/02 A3009 RMK A01 T01320023  RH  048%=      5-min Rain = 0
KLA1 170951Z 10004KT 13/02 A3009 RMK A01 T01320023  RH  048%=      5-min Rain = 0
KLA1 170952Z 11005KT 13/02 A3009 RMK A01 T01320023  RH  048%=      5-min Rain = 0
KLA1 170953Z 11004KT 13/02 A3009 RMK A01 T01310023  RH  048%=      5-min Rain = 0
KLA1 170954Z 10004KT 13/02 A3009 RMK A01 T01310024  RH  048%=      5-min Rain = 0
KLA1 170955Z 10005KT 13/02 A3009 RMK A01 T01310024  RH  048%=      5-min Rain = 0
KLA1 170956Z 10005KT 13/02 A3009 RMK A01 T01310024  RH  048%=      5-min Rain = 0
KLA1 170957Z 10004KT 13/02 A3009 RMK A01 T01310024  RH  048%=      5-min Rain = 0
KLA1 170958Z 10005KT 13/03 A3009 RMK A01 T01310025  RH  048%=      5-min Rain = 0
KLA1 170959Z 10004KT 13/03 A3009 RMK A01 T01310025  RH  049%=      5-min Rain = 0
KLA1 171000Z 10005KT 13/03 A3009 RMK A01 T01300025  RH  049%=      5-min Rain = 0
KLA1 171001Z 10004KT 13/03 A3008 RMK A01 T01310025  RH  048%=      5-min Rain = 0
KLA1 171002Z 10005KT 13/03 A3008 RMK A01 T01310025  RH  048%=      5-min Rain = 0
KLA1 171003Z 10005KT 13/03 A3008 RMK A01 T01310025  RH  048%=      5-min Rain = 0
KLA1 171004Z 10005KT 13/03 A3008 RMK A01 T01310025  RH  048%=      5-min Rain = 0
KLA1 171005Z 10005KT 13/03 A3008 RMK A01 T01320025  RH  048%=      5-min Rain = 0
KLA1 171006Z 10006KT 13/03 A3008 RMK A01 T01320025  RH  048%=      5-min Rain = 0
KLA1 171007Z 10006KT 13/03 A3009 RMK A01 T01310025  RH  049%=      5-min Rain = 0
KLA1 171008Z 10005KT 13/03 A3009 RMK A01 T01310025  RH  049%=      5-min Rain = 0
KLA1 171009Z 11005KT 13/03 A3009 RMK A01 T01320026  RH  049%=      5-min Rain = 0
KLA1 171010Z 11005KT 13/03 A3009 RMK A01 T01320026  RH  049%=      5-min Rain = 0
KLA1 171011Z 11005KT 13/03 A3009 RMK A01 T01320026  RH  049%=      5-min Rain = 0
KLA1 171012Z 11004KT 13/03 A3009 RMK A01 T01310026  RH  049%=      5-min Rain = 0
KLA1 171013Z 11005KT 13/03 A3009 RMK A01 T01310026  RH  049%=      5-min Rain = 0
KLA1 171014Z 11005KT 13/03 A3009 RMK A01 T01310026  RH  049%=      5-min Rain = 0
KLA1 171015Z 11005KT 13/03 A3009 RMK A01 T01300026  RH  049%=      5-min Rain = 0
KLA1 171016Z 11005KT 13/03 A3008 RMK A01 T01300026  RH  049%=      5-min Rain = 0
KLA1 171017Z 11005KT 13/03 A3008 RMK A01 T01290026  RH  050%=      5-min Rain = 0
KLA1 171018Z 11004KT 13/03 A3008 RMK A01 T01290027  RH  050%=      5-min Rain = 0
KLA1 171019Z 11005KT 13/03 A3008 RMK A01 T01290027  RH  050%=      5-min Rain = 0
KLA1 171020Z 10004KT 13/03 A3008 RMK A01 T01290027  RH  050%=      5-min Rain = 0
KLA1 171021Z 10005KT 13/03 A3008 RMK A01 T01290027  RH  050%=      5-min Rain = 0
KLA1 171022Z 10005KT 13/03 A3008 RMK A01 T01290028  RH  050%=      5-min Rain = 0
KLA1 171023Z 10005KT 13/03 A3008 RMK A01 T01290028  RH  050%=      5-min Rain = 0
KLA1 171024Z 10006KT 13/03 A3008 RMK A01 T01290029  RH  050%=      5-min Rain = 0
KLA1 171025Z 09005KT 13/03 A3008 RMK A01 T01310030  RH  050%=      5-min Rain = 0
KLA1 171026Z 09005KT 13/03 A3008 RMK A01 T01320030  RH  050%=      5-min Rain = 0
KLA1 171027Z 09003KT 13/03 A3008 RMK A01 T01330030  RH  050%=      5-min Rain = 0
KLA1 171028Z 09005KT 13/03 A3008 RMK A01 T01330030  RH  050%=      5-min Rain = 0
KLA1 171029Z 09005KT 13/03 A3008 RMK A01 T01330031  RH  050%=      5-min Rain = 0
KLA1 171030Z 10006KT 13/03 A3008 RMK A01 T01330030  RH  050%=      5-min Rain = 0
KLA1 171031Z 10005KT 13/03 A3008 RMK A01 T01340031  RH  050%=      5-min Rain = 0
KLA1 171032Z 10004KT 14/03 A3008 RMK A01 T01350031  RH  050%=      5-min Rain = 0
KLA1 171033Z 08004KT 14/03 A3008 RMK A01 T01350031  RH  049%=      5-min Rain = 0
KLA1 171034Z 10005KT 14/03 A3008 RMK A01 T01350031  RH  049%=      5-min Rain = 0
KLA1 171035Z 10005KT 14/03 A3008 RMK A01 T01350031  RH  049%=      5-min Rain = 0
KLA1 171036Z 10007KT 14/03 A3008 RMK A01 T01350030  RH  049%=      5-min Rain = 0
KLA1 171037Z 09006KT 14/03 A3008 RMK A01 T01350031  RH  049%=      5-min Rain = 0
KLA1 171038Z 10005KT 14/03 A3008 RMK A01 T01360031  RH  049%=      5-min Rain = 0
KLA1 171039Z 10004KT 14/03 A3008 RMK A01 T01360031  RH  049%=      5-min Rain = 0
KLA1 171040Z 11006KT 14/03 A3008 RMK A01 T01350031  RH  049%=      5-min Rain = 0
KLA1 171041Z 10005KT 14/03 A3008 RMK A01 T01350031  RH  049%=      5-min Rain = 0
KLA1 171042Z 11004KT 14/03 A3008 RMK A01 T01350031  RH  049%=      5-min Rain = 0
KLA1 171043Z 12003KT 14/03 A3008 RMK A01 T01350031  RH  049%=      5-min Rain = 0
KLA1 171044Z 12003KT 14/03 A3008 RMK A01 T01350032  RH  050%=      5-min Rain = 0
KLA1 171045Z 12004KT 13/03 A3008 RMK A01 T01340031  RH  050%=      5-min Rain = 0
KLA1 171046Z 12003KT 13/03 A3008 RMK A01 T01330031  RH  050%=      5-min Rain = 0
KLA1 171047Z 12003KT 13/03 A3008 RMK A01 T01320031  RH  050%=      5-min Rain = 0
KLA1 171048Z 11002KT 13/03 A3008 RMK A01 T01310031  RH  051%=      5-min Rain = 0
KLA1 171049Z 12002KT 13/03 A3008 RMK A01 T01310031  RH  051%=      5-min Rain = 0
KLA1 171050Z 12001KT 13/03 A3008 RMK A01 T01300031  RH  051%=      5-min Rain = 0
KLA1 171051Z 15001KT 13/03 A3008 RMK A01 T01290031  RH  051%=      5-min Rain = 0
KLA1 171052Z 23001KT 13/03 A3008 RMK A01 T01270033  RH  053%=      5-min Rain = 0
KLA1 171053Z 26001KT 12/03 A3008 RMK A01 T01230032  RH  054%=      5-min Rain = 0
KLA1 171054Z 26002KT 12/03 A3008 RMK A01 T01200030  RH  054%=      5-min Rain = 0
KLA1 171055Z 23001KT 12/03 A3008 RMK A01 T01170030  RH  055%=      5-min Rain = 0
KLA1 171056Z 21001KT 11/03 A3008 RMK A01 T01140030  RH  056%=      5-min Rain = 0
KLA1 171057Z 21001KT 11/03 A3008 RMK A01 T01130030  RH  056%=      5-min Rain = 0
KLA1 171058Z 22001KT 11/03 A3008 RMK A01 T01130030  RH  057%=      5-min Rain = 0
KLA1 171059Z 15000KT 11/03 A3008 RMK A01 T01120030  RH  057%=      5-min Rain = 0
KLA1 171100Z 00000KT 11/03 A3008 RMK A01 T01120030  RH  057%=      5-min Rain = 0
KLA1 171101Z 00000KT 11/03 A3008 RMK A01 T01120030  RH  057%=      5-min Rain = 0
KLA1 171102Z 11001KT 11/03 A3008 RMK A01 T01120030  RH  057%=      5-min Rain = 0
KLA1 171103Z 12001KT 11/03 A3008 RMK A01 T01130030  RH  057%=      5-min Rain = 0
KLA1 171104Z 11001KT 11/03 A3008 RMK A01 T01130030  RH  057%=      5-min Rain = 0
KLA1 171105Z 11002KT 11/03 A3008 RMK A01 T01130030  RH  057%=      5-min Rain = 0
KLA1 171106Z 11002KT 11/03 A3008 RMK A01 T01140031  RH  057%=      5-min Rain = 0
KLA1 171107Z 11002KT 11/03 A3008 RMK A01 T01140030  RH  056%=      5-min Rain = 0
KLA1 171108Z 11002KT 12/03 A3008 RMK A01 T01150030  RH  056%=      5-min Rain = 0
KLA1 171109Z 12003KT 12/03 A3008 RMK A01 T01160031  RH  056%=      5-min Rain = 0
KLA1 171110Z 12003KT 12/03 A3008 RMK A01 T01150030  RH  056%=      5-min Rain = 0
KLA1 171111Z 12003KT 12/03 A3008 RMK A01 T01160030  RH  056%=      5-min Rain = 0
KLA1 171112Z 12003KT 12/03 A3008 RMK A01 T01170030  RH  055%=      5-min Rain = 0
KLA1 171113Z 12004KT 12/03 A3008 RMK A01 T01180030  RH  055%=      5-min Rain = 0
KLA1 171114Z 13004KT 12/03 A3007 RMK A01 T01180032  RH  055%=      5-min Rain = 0
KLA1 171115Z 13004KT 12/03 A3007 RMK A01 T01180031  RH  055%=      5-min Rain = 0
KLA1 171116Z 13004KT 12/03 A3007 RMK A01 T01190031  RH  055%=      5-min Rain = 0
KLA1 171117Z 13004KT 12/03 A3007 RMK A01 T01200031  RH  055%=      5-min Rain = 0
KLA1 171118Z 13004KT 12/03 A3007 RMK A01 T01200031  RH  055%=      5-min Rain = 0
KLA1 171119Z 13004KT 12/03 A3007 RMK A01 T01200032  RH  055%=      5-min Rain = 0
KLA1 171120Z 13004KT 12/03 A3007 RMK A01 T01190032  RH  055%=      5-min Rain = 0
KLA1 171121Z 13004KT 12/03 A3007 RMK A01 T01190033  RH  056%=      5-min Rain = 0
KLA1 171122Z 14004KT 12/03 A3007 RMK A01 T01180033  RH  056%=      5-min Rain = 0
KLA1 171123Z 14003KT 12/03 A3008 RMK A01 T01180033  RH  056%=      5-min Rain = 0
KLA1 171124Z 14003KT 12/03 A3008 RMK A01 T01160033  RH  057%=      5-min Rain = 0
KLA1 171125Z 14003KT 12/04 A3008 RMK A01 T01150035  RH  058%=      5-min Rain = 0
KLA1 171126Z 14003KT 11/04 A3008 RMK A01 T01130035  RH  059%=      5-min Rain = 0
KLA1 171127Z 13003KT 11/04 A3008 RMK A01 T01120035  RH  059%=      5-min Rain = 0
KLA1 171128Z 12003KT 11/04 A3008 RMK A01 T01100035  RH  060%=      5-min Rain = 0
KLA1 171129Z 12002KT 11/04 A3008 RMK A01 T01100035  RH  060%=      5-min Rain = 0
KLA1 171130Z 12002KT 11/04 A3008 RMK A01 T01100035  RH  060%=      5-min Rain = 0
KLA1 171131Z 11001KT 11/04 A3007 RMK A01 T01100035  RH  060%=      5-min Rain = 0
KLA1 171132Z 13000KT 11/04 A3007 RMK A01 T01090035  RH  060%=      5-min Rain = 0
KLA1 171133Z 00000KT 11/04 A3007 RMK A01 T01090036  RH  060%=      5-min Rain = 0
KLA1 171134Z 17000KT 11/04 A3007 RMK A01 T01090036  RH  061%=      5-min Rain = 0
KLA1 171135Z 17000KT 11/04 A3007 RMK A01 T01090035  RH  061%=      5-min Rain = 0
KLA1 171136Z 15001KT 11/03 A3007 RMK A01 T01080034  RH  060%=      5-min Rain = 0
KLA1 171137Z 14001KT 11/03 A3007 RMK A01 T01080034  RH  060%=      5-min Rain = 0
KLA1 171138Z 12001KT 11/04 A3007 RMK A01 T01090035  RH  060%=      5-min Rain = 0
KLA1 171139Z 12002KT 11/03 A3007 RMK A01 T01080034  RH  060%=      5-min Rain = 0
KLA1 171140Z 12002KT 11/03 A3007 RMK A01 T01080034  RH  060%=      5-min Rain = 0
KLA1 171141Z 11002KT 11/03 A3007 RMK A01 T01080034  RH  060%=      5-min Rain = 0
KLA1 171142Z 11002KT 11/03 A3007 RMK A01 T01090033  RH  060%=      5-min Rain = 0
KLA1 171143Z 11002KT 11/03 A3007 RMK A01 T01090033  RH  060%=      5-min Rain = 0
KLA1 171144Z 11002KT 11/03 A3007 RMK A01 T01080033  RH  060%=      5-min Rain = 0
KLA1 171145Z 11002KT 11/03 A3007 RMK A01 T01080034  RH  060%=      5-min Rain = 0
KLA1 171146Z 10003KT 11/03 A3007 RMK A01 T01080034  RH  060%=      5-min Rain = 0
KLA1 171147Z 10003KT 11/03 A3007 RMK A01 T01080033  RH  060%=      5-min Rain = 0
KLA1 171148Z 10003KT 11/03 A3007 RMK A01 T01090033  RH  060%=      5-min Rain = 0
KLA1 171149Z 09003KT 11/03 A3007 RMK A01 T01100033  RH  059%=      5-min Rain = 0
KLA1 171150Z 09003KT 11/03 A3007 RMK A01 T01110034  RH  059%=      5-min Rain = 0
KLA1 171151Z 09003KT 11/03 A3007 RMK A01 T01120033  RH  058%=      5-min Rain = 0
KLA1 171152Z 10003KT 11/03 A3007 RMK A01 T01140033  RH  058%=      5-min Rain = 0
KLA1 171153Z 09004KT 12/03 A3007 RMK A01 T01150033  RH  057%=      5-min Rain = 0
KLA1 171154Z 09004KT 12/03 A3007 RMK A01 T01150033  RH  057%=      5-min Rain = 0
KLA1 171155Z 10004KT 12/03 A3007 RMK A01 T01160033  RH  057%=      5-min Rain = 0
KLA1 171156Z 10003KT 12/03 A3007 RMK A01 T01160032  RH  056%=      5-min Rain = 0
KLA1 171157Z 09003KT 12/03 A3007 RMK A01 T01170032  RH  056%=      5-min Rain = 0
KLA1 171158Z 10002KT 12/03 A3007 RMK A01 T01190032  RH  055%=      5-min Rain = 0
KLA1 171159Z 10001KT 12/03 A3007 RMK A01 T01190032  RH  055%=      5-min Rain = 0
KLA1 171200Z 11000KT 12/03 A3007 RMK A01 T01200033  RH  055%=      5-min Rain = 0
KLA1 171201Z 00000KT 12/03 A3007 RMK A01 T01180033  RH  056%=      5-min Rain = 0
KLA1 171202Z 00000KT 12/03 A3007 RMK A01 T01170034  RH  057%=      5-min Rain = 0
KLA1 171203Z 00000KT 12/03 A3007 RMK A01 T01160034  RH  057%=      5-min Rain = 0
KLA1 171204Z 00000KT 12/03 A3007 RMK A01 T01150034  RH  058%=      5-min Rain = 0
KLA1 171205Z 00000KT 11/03 A3007 RMK A01 T01140033  RH  058%=      5-min Rain = 0
KLA1 171206Z 11000KT 11/03 A3007 RMK A01 T01140033  RH  058%=      5-min Rain = 0
KLA1 171207Z 10001KT 11/03 A3007 RMK A01 T01140033  RH  058%=      5-min Rain = 0
KLA1 171208Z 10002KT 11/03 A3007 RMK A01 T01130033  RH  058%=      5-min Rain = 0
KLA1 171209Z 09002KT 11/03 A3007 RMK A01 T01120032  RH  058%=      5-min Rain = 0
KLA1 171210Z 09002KT 11/03 A3007 RMK A01 T01110032  RH  058%=      5-min Rain = 0
KLA1 171211Z 09002KT 11/03 A3007 RMK A01 T01110033  RH  059%=      5-min Rain = 0
KLA1 171212Z 09002KT 11/03 A3007 RMK A01 T01090033  RH  059%=      5-min Rain = 0
KLA1 171213Z 10002KT 11/03 A3007 RMK A01 T01080033  RH  060%=      5-min Rain = 0
KLA1 171214Z 10003KT 11/03 A3007 RMK A01 T01060033  RH  060%=      5-min Rain = 0
KLA1 171215Z 11003KT 11/03 A3007 RMK A01 T01060033  RH  061%=      5-min Rain = 0
KLA1 171216Z 10003KT 11/03 A3007 RMK A01 T01050034  RH  061%=      5-min Rain = 0
KLA1 171217Z 10003KT 11/03 A3007 RMK A01 T01060034  RH  061%=      5-min Rain = 0
KLA1 171218Z 11003KT 11/03 A3007 RMK A01 T01070034  RH  060%=      5-min Rain = 0
KLA1 171219Z 11003KT 11/03 A3007 RMK A01 T01090034  RH  060%=      5-min Rain = 0
KLA1 171220Z 11002KT 11/03 A3007 RMK A01 T01100034  RH  059%=      5-min Rain = 0
KLA1 171221Z 11002KT 11/03 A3007 RMK A01 T01110034  RH  059%=      5-min Rain = 0
KLA1 171222Z 11002KT 11/03 A3007 RMK A01 T01120034  RH  059%=      5-min Rain = 0
KLA1 171223Z 11002KT 11/03 A3007 RMK A01 T01130034  RH  058%=      5-min Rain = 0
KLA1 171224Z 11003KT 11/03 A3007 RMK A01 T01140034  RH  058%=      5-min Rain = 0
KLA1 171225Z 11003KT 12/03 A3007 RMK A01 T01150034  RH  057%=      5-min Rain = 0
KLA1 171226Z 10003KT 12/03 A3007 RMK A01 T01160034  RH  057%=      5-min Rain = 0
KLA1 171227Z 09003KT 12/03 A3007 RMK A01 T01160034  RH  057%=      5-min Rain = 0
KLA1 171228Z 09003KT 12/03 A3007 RMK A01 T01160034  RH  057%=      5-min Rain = 0
KLA1 171229Z 10003KT 12/04 A3007 RMK A01 T01160035  RH  057%=      5-min Rain = 0
KLA1 171230Z 09003KT 12/04 A3007 RMK A01 T01160035  RH  057%=      5-min Rain = 0
KLA1 171231Z 10004KT 12/03 A3007 RMK A01 T01150034  RH  058%=      5-min Rain = 0
KLA1 171232Z 10004KT 11/04 A3007 RMK A01 T01140035  RH  058%=      5-min Rain = 0
KLA1 171233Z 11004KT 11/03 A3007 RMK A01 T01140034  RH  058%=      5-min Rain = 0
KLA1 171234Z 11004KT 11/03 A3007 RMK A01 T01130034  RH  058%=      5-min Rain = 0
KLA1 171235Z 11003KT 11/03 A3007 RMK A01 T01130034  RH  058%=      5-min Rain = 0
KLA1 171236Z 11002KT 11/04 A3007 RMK A01 T01120036  RH  060%=      5-min Rain = 0
KLA1 171237Z 12000KT 11/04 A3007 RMK A01 T01090036  RH  060%=      5-min Rain = 0
KLA1 171238Z 25000KT 11/04 A3007 RMK A01 T01070035  RH  061%=      5-min Rain = 0
KLA1 171239Z 25002KT 10/03 A3007 RMK A01 T01040034  RH  062%=      5-min Rain = 0
KLA1 171240Z 26002KT 10/04 A3007 RMK A01 T01030035  RH  063%=      5-min Rain = 0
KLA1 171241Z 27003KT 10/04 A3007 RMK A01 T01020035  RH  063%=      5-min Rain = 0
KLA1 171242Z 27004KT 10/04 A3007 RMK A01 T01010035  RH  063%=      5-min Rain = 0
KLA1 171243Z 29004KT 10/04 A3007 RMK A01 T01010035  RH  063%=      5-min Rain = 0
KLA1 171244Z 29004KT 10/03 A3007 RMK A01 T01000034  RH  063%=      5-min Rain = 0
KLA1 171245Z 29003KT 10/03 A3007 RMK A01 T01000034  RH  064%=      5-min Rain = 0
KLA1 171246Z 29003KT 10/03 A3007 RMK A01 T01000034  RH  064%=      5-min Rain = 0
KLA1 171247Z 30002KT 10/03 A3007 RMK A01 T01000034  RH  064%=      5-min Rain = 0
KLA1 171248Z 30001KT 10/03 A3007 RMK A01 T01000034  RH  064%=      5-min Rain = 0
KLA1 171249Z 32000KT 10/03 A3007 RMK A01 T01000034  RH  063%=      5-min Rain = 0
KLA1 171250Z 00000KT 10/03 A3007 RMK A01 T01010034  RH  063%=      5-min Rain = 0
KLA1 171251Z 00000KT 10/04 A3007 RMK A01 T01010035  RH  063%=      5-min Rain = 0
KLA1 171252Z 00000KT 10/04 A3007 RMK A01 T01010035  RH  063%=      5-min Rain = 0
KLA1 171253Z 31000KT 10/04 A3007 RMK A01 T01010035  RH  064%=      5-min Rain = 0
KLA1 171254Z 30002KT 10/04 A3007 RMK A01 T01000036  RH  064%=      5-min Rain = 0
KLA1 171255Z 30002KT 10/04 A3007 RMK A01 T01000036  RH  064%=      5-min Rain = 0
KLA1 171256Z 31003KT 10/04 A3007 RMK A01 T00990035  RH  064%=      5-min Rain = 0
KLA1 171257Z 31002KT 10/04 A3007 RMK A01 T00980035  RH  065%=      5-min Rain = 0
KLA1 171258Z 32002KT 10/04 A3007 RMK A01 T00970035  RH  065%=      5-min Rain = 0
KLA1 171259Z 33002KT 10/04 A3007 RMK A01 T00960036  RH  066%=      5-min Rain = 0
KLA1 171300Z 33002KT 10/04 A3007 RMK A01 T00960036  RH  066%=      5-min Rain = 0
KLA1 171301Z 32001KT 10/04 A3007 RMK A01 T00960035  RH  066%=      5-min Rain = 0
KLA1 171302Z 34000KT 10/04 A3007 RMK A01 T00970035  RH  065%=      5-min Rain = 0
KLA1 171303Z 31000KT 10/04 A3007 RMK A01 T00970035  RH  065%=      5-min Rain = 0
KLA1 171304Z 30001KT 10/04 A3007 RMK A01 T00970035  RH  065%=      5-min Rain = 0
KLA1 171305Z 00000KT 10/04 A3007 RMK A01 T00970036  RH  066%=      5-min Rain = 0
KLA1 171306Z 33000KT 10/04 A3007 RMK A01 T00960036  RH  066%=      5-min Rain = 0
KLA1 171307Z 35000KT 10/04 A3007 RMK A01 T00960035  RH  066%=      5-min Rain = 0
KLA1 171308Z 00000KT 10/04 A3007 RMK A01 T00960035  RH  065%=      5-min Rain = 0
KLA1 171309Z 01001KT 10/04 A3007 RMK A01 T00970035  RH  065%=      5-min Rain = 0
KLA1 171310Z 02001KT 10/04 A3007 RMK A01 T00980035  RH  065%=      5-min Rain = 0
KLA1 171311Z 03002KT 10/04 A3007 RMK A01 T00980035  RH  065%=      5-min Rain = 0
KLA1 171312Z 03002KT 10/03 A3007 RMK A01 T01000034  RH  064%=      5-min Rain = 0
KLA1 171313Z 04002KT 10/03 A3007 RMK A01 T01010034  RH  063%=      5-min Rain = 0
KLA1 171314Z 04001KT 10/04 A3007 RMK A01 T01010035  RH  063%=      5-min Rain = 0
KLA1 171315Z 24000KT 10/04 A3007 RMK A01 T01000037  RH  065%=      5-min Rain = 0
KLA1 171316Z 03001KT 10/04 A3007 RMK A01 T00990037  RH  065%=      5-min Rain = 0
KLA1 171317Z 03000KT 10/04 A3007 RMK A01 T00990036  RH  065%=      5-min Rain = 0
KLA1 171318Z 20000KT 10/04 A3007 RMK A01 T00990038  RH  066%=      5-min Rain = 0
KLA1 171319Z 00000KT 10/04 A3007 RMK A01 T00980039  RH  067%=      5-min Rain = 0
KLA1 171320Z 00000KT 10/04 A3007 RMK A01 T00980039  RH  067%=      5-min Rain = 0
KLA1 171321Z 00000KT 10/04 A3007 RMK A01 T00980039  RH  067%=      5-min Rain = 0
KLA1 171322Z 00000KT 10/04 A3007 RMK A01 T00970039  RH  067%=      5-min Rain = 0
KLA1 171323Z 11000KT 10/04 A3007 RMK A01 T00970039  RH  068%=      5-min Rain = 0
KLA1 171324Z 10001KT 10/04 A3007 RMK A01 T00970041  RH  068%=      5-min Rain = 0
KLA1 171325Z 10000KT 10/04 A3007 RMK A01 T00970042  RH  069%=      5-min Rain = 0
KLA1 171326Z 00000KT 10/04 A3007 RMK A01 T00980042  RH  068%=      5-min Rain = 0
KLA1 171327Z 20001KT 10/04 A3007 RMK A01 T00980042  RH  068%=      5-min Rain = 0
KLA1 171328Z 24001KT 10/04 A3007 RMK A01 T00970042  RH  069%=      5-min Rain = 0
KLA1 171329Z 26002KT 10/04 A3007 RMK A01 T00960039  RH  068%=      5-min Rain = 0
KLA1 171330Z 27002KT 09/04 A3007 RMK A01 T00930036  RH  067%=      5-min Rain = 0
KLA1 171331Z 28000KT 09/04 A3007 RMK A01 T00930036  RH  068%=      5-min Rain = 0
KLA1 171332Z 28000KT 09/04 A3007 RMK A01 T00930036  RH  067%=      5-min Rain = 0
KLA1 171333Z 00000KT 09/04 A3007 RMK A01 T00940035  RH  067%=      5-min Rain = 0
KLA1 171334Z 00000KT 10/04 A3007 RMK A01 T00950035  RH  066%=      5-min Rain = 0
KLA1 171335Z 00000KT 10/04 A3007 RMK A01 T00960035  RH  066%=      5-min Rain = 0
KLA1 171336Z 09000KT 10/03 A3007 RMK A01 T00980034  RH  065%=      5-min Rain = 0
KLA1 171337Z 08000KT 10/04 A3007 RMK A01 T00990036  RH  065%=      5-min Rain = 0
KLA1 171338Z 00000KT 10/04 A3007 RMK A01 T01010036  RH  064%=      5-min Rain = 0
KLA1 171339Z 00000KT 10/04 A3007 RMK A01 T01030037  RH  064%=      5-min Rain = 0
KLA1 171340Z 00000KT 10/04 A3007 RMK A01 T01040037  RH  063%=      5-min Rain = 0
KLA1 171341Z 31000KT 11/04 A3007 RMK A01 T01050038  RH  063%=      5-min Rain = 0
KLA1 171342Z 29001KT 11/04 A3007 RMK A01 T01050038  RH  063%=      5-min Rain = 0
KLA1 171343Z 29001KT 11/04 A3007 RMK A01 T01060038  RH  062%=      5-min Rain = 0
KLA1 171344Z 29001KT 11/04 A3007 RMK A01 T01080038  RH  062%=      5-min Rain = 0
KLA1 171345Z 29001KT 11/04 A3007 RMK A01 T01100038  RH  061%=      5-min Rain = 0
KLA1 171346Z 29001KT 11/04 A3007 RMK A01 T01120038  RH  061%=      5-min Rain = 0
KLA1 171347Z 29002KT 11/04 A3007 RMK A01 T01130038  RH  060%=      5-min Rain = 0
KLA1 171348Z 29002KT 11/04 A3007 RMK A01 T01140038  RH  059%=      5-min Rain = 0
KLA1 171349Z 30002KT 12/04 A3007 RMK A01 T01160038  RH  059%=      5-min Rain = 0
KLA1 171350Z 29002KT 12/04 A3007 RMK A01 T01170037  RH  058%=      5-min Rain = 0
KLA1 171351Z 29001KT 12/04 A3007 RMK A01 T01170037  RH  058%=      5-min Rain = 0
KLA1 171352Z 30001KT 12/04 A3007 RMK A01 T01180037  RH  057%=      5-min Rain = 0
KLA1 171353Z 29001KT 12/04 A3007 RMK A01 T01190037  RH  057%=      5-min Rain = 0
KLA1 171354Z 28002KT 12/04 A3007 RMK A01 T01190039  RH  058%=      5-min Rain = 0
KLA1 171355Z 28002KT 12/04 A3007 RMK A01 T01200039  RH  058%=      5-min Rain = 0
KLA1 171356Z 28003KT 12/04 A3007 RMK A01 T01210039  RH  057%=      5-min Rain = 0
KLA1 171357Z 28002KT 12/04 A3007 RMK A01 T01220039  RH  057%=      5-min Rain = 0
KLA1 171358Z 28002KT 12/04 A3007 RMK A01 T01220040  RH  057%=      5-min Rain = 0
KLA1 171359Z 28002KT 12/04 A3007 RMK A01 T01220041  RH  058%=      5-min Rain = 0
KLA1 171400Z 28001KT 12/04 A3007 RMK A01 T01230043  RH  058%=      5-min Rain = 0
KLA1 171401Z 27002KT 12/04 A3007 RMK A01 T01240042  RH  058%=      5-min Rain = 0
KLA1 171402Z 28002KT 12/04 A3007 RMK A01 T01240043  RH  058%=      5-min Rain = 0
KLA1 171403Z 29003KT 12/04 A3007 RMK A01 T01230044  RH  059%=      5-min Rain = 0
KLA1 171404Z 27002KT 12/04 A3007 RMK A01 T01230043  RH  058%=      5-min Rain = 0
KLA1 171405Z 29002KT 12/04 A3007 RMK A01 T01230043  RH  058%=      5-min Rain = 0
KLA1 171406Z 28002KT 12/04 A3007 RMK A01 T01230044  RH  058%=      5-min Rain = 0
KLA1 171407Z 28002KT 12/04 A3007 RMK A01 T01230043  RH  058%=      5-min Rain = 0
KLA1 171408Z 29002KT 12/04 A3007 RMK A01 T01240043  RH  058%=      5-min Rain = 0
KLA1 171409Z 29002KT 13/04 A3007 RMK A01 T01250043  RH  057%=      5-min Rain = 0
KLA1 171410Z 28002KT 13/04 A3007 RMK A01 T01260043  RH  057%=      5-min Rain = 0
KLA1 171411Z 29002KT 13/04 A3007 RMK A01 T01260043  RH  057%=      5-min Rain = 0
KLA1 171412Z 28002KT 13/04 A3007 RMK A01 T01280044  RH  056%=      5-min Rain = 0
KLA1 171413Z 28001KT 13/04 A3007 RMK A01 T01300044  RH  056%=      5-min Rain = 0
KLA1 171414Z 28002KT 13/04 A3007 RMK A01 T01320044  RH  055%=      5-min Rain = 0
KLA1 171415Z 27002KT 13/04 A3007 RMK A01 T01340044  RH  055%=      5-min Rain = 0
KLA1 171416Z 28002KT 14/04 A3007 RMK A01 T01350043  RH  054%=      5-min Rain = 0
KLA1 171417Z 28002KT 14/04 A3008 RMK A01 T01350043  RH  054%=      5-min Rain = 0
KLA1 171418Z 28002KT 14/04 A3008 RMK A01 T01360044  RH  054%=      5-min Rain = 0
KLA1 171419Z 27001KT 14/05 A3008 RMK A01 T01370045  RH  054%=      5-min Rain = 0
KLA1 171420Z 27000KT 14/04 A3007 RMK A01 T01380044  RH  053%=      5-min Rain = 0
KLA1 171421Z 00000KT 14/04 A3007 RMK A01 T01390043  RH  052%=      5-min Rain = 0
KLA1 171422Z 00000KT 14/04 A3007 RMK A01 T01410043  RH  052%=      5-min Rain = 0
KLA1 171423Z 10000KT 14/04 A3007 RMK A01 T01440041  RH  050%=      5-min Rain = 0
KLA1 171424Z 09001KT 15/04 A3007 RMK A01 T01470042  RH  049%=      5-min Rain = 0
KLA1 171425Z 08000KT 15/04 A3007 RMK A01 T01500044  RH  049%=      5-min Rain = 0
KLA1 171426Z 11001KT 15/05 A3007 RMK A01 T01530046  RH  049%=      5-min Rain = 0
KLA1 171427Z 10001KT 16/04 A3007 RMK A01 T01550044  RH  048%=      5-min Rain = 0
KLA1 171428Z 08001KT 16/05 A3007 RMK A01 T01550045  RH  048%=      5-min Rain = 0
KLA1 171429Z 08001KT 16/05 A3007 RMK A01 T01550046  RH  048%=      5-min Rain = 0
KLA1 171430Z 08001KT 16/05 A3007 RMK A01 T01560047  RH  048%=      5-min Rain = 0
KLA1 171431Z 08001KT 16/05 A3007 RMK A01 T01570048  RH  048%=      5-min Rain = 0
KLA1 171432Z 08001KT 16/05 A3007 RMK A01 T01590050  RH  048%=      5-min Rain = 0
KLA1 171433Z 11000KT 16/05 A3007 RMK A01 T01610051  RH  048%=      5-min Rain = 0
KLA1 171434Z 13000KT 16/05 A3007 RMK A01 T01630051  RH  047%=      5-min Rain = 0
KLA1 171435Z 00000KT 16/05 A3007 RMK A01 T01630050  RH  047%=      5-min Rain = 0
KLA1 171436Z 19001KT 16/05 A3007 RMK A01 T01640050  RH  047%=      5-min Rain = 0
KLA1 171437Z 17000KT 17/05 A3007 RMK A01 T01660053  RH  047%=      5-min Rain = 0
KLA1 171438Z 17001KT 17/05 A3007 RMK A01 T01670053  RH  047%=      5-min Rain = 0
KLA1 171439Z 18003KT 17/05 A3007 RMK A01 T01680053  RH  047%=      5-min Rain = 0
KLA1 171440Z 16001KT 17/06 A3007 RMK A01 T01670056  RH  048%=      5-min Rain = 0
KLA1 171441Z 20001KT 17/06 A3007 RMK A01 T01660057  RH  048%=      5-min Rain = 0
KLA1 171442Z 19001KT 17/06 A3007 RMK A01 T01670057  RH  048%=      5-min Rain = 0
KLA1 171443Z 16002KT 17/06 A3007 RMK A01 T01670057  RH  048%=      5-min Rain = 0
KLA1 171444Z 16003KT 17/06 A3007 RMK A01 T01680057  RH  048%=      5-min Rain = 0
KLA1 171445Z 17003KT 17/06 A3007 RMK A01 T01690056  RH  047%=      5-min Rain = 0
KLA1 171446Z 16004KT 17/06 A3007 RMK A01 T01700055  RH  047%=      5-min Rain = 0
KLA1 171447Z 16004KT 17/06 A3007 RMK A01 T01700055  RH  047%=      5-min Rain = 0
KLA1 171448Z 15004KT 17/06 A3007 RMK A01 T01690055  RH  047%=      5-min Rain = 0
KLA1 171449Z 14004KT 17/06 A3007 RMK A01 T01690055  RH  047%=      5-min Rain = 0
KLA1 171450Z 13003KT 17/06 A3007 RMK A01 T01700057  RH  047%=      5-min Rain = 0
KLA1 171451Z 13004KT 17/06 A3007 RMK A01 T01710055  RH  046%=      5-min Rain = 0
KLA1 171452Z 15003KT 17/06 A3007 RMK A01 T01710057  RH  047%=      5-min Rain = 0
KLA1 171453Z 16003KT 17/06 A3007 RMK A01 T01710058  RH  047%=      5-min Rain = 0
KLA1 171454Z 18002KT 17/06 A3007 RMK A01 T01710057  RH  047%=      5-min Rain = 0
KLA1 171455Z 15003KT 17/06 A3007 RMK A01 T01720058  RH  047%=      5-min Rain = 0
KLA1 171456Z 16003KT 17/06 A3008 RMK A01 T01720057  RH  047%=      5-min Rain = 0
KLA1 171457Z 15003KT 17/06 A3008 RMK A01 T01720057  RH  047%=      5-min Rain = 0
KLA1 171458Z 15003KT 17/06 A3008 RMK A01 T01720056  RH  046%=      5-min Rain = 0
KLA1 171459Z 14003KT 17/06 A3008 RMK A01 T01730055  RH  046%=      5-min Rain = 0
KLA1 171500Z 14004KT 17/06 A3008 RMK A01 T01740056  RH  046%=      5-min Rain = 0
KLA1 171501Z 14003KT 18/06 A3008 RMK A01 T01750055  RH  045%=      5-min Rain = 0
KLA1 171502Z 12002KT 18/06 A3008 RMK A01 T01750056  RH  045%=      5-min Rain = 0
KLA1 171503Z 14002KT 18/06 A3008 RMK A01 T01760057  RH  046%=      5-min Rain = 0
KLA1 171504Z 15003KT 18/06 A3007 RMK A01 T01770055  RH  045%=      5-min Rain = 0
KLA1 171505Z 16003KT 18/06 A3007 RMK A01 T01770056  RH  045%=      5-min Rain = 0
KLA1 171506Z 15004KT 18/06 A3007 RMK A01 T01780056  RH  045%=      5-min Rain = 0
KLA1 171507Z 13005KT 18/06 A3007 RMK A01 T01760056  RH  045%=      5-min Rain = 0
KLA1 171508Z 14004KT 18/06 A3007 RMK A01 T01760058  RH  046%=      5-min Rain = 0
KLA1 171509Z 12004KT 18/06 A3007 RMK A01 T01770058  RH  046%=      5-min Rain = 0
KLA1 171510Z 11003KT 18/06 A3007 RMK A01 T01770057  RH  045%=      5-min Rain = 0
KLA1 171511Z 12002KT 18/06 A3007 RMK A01 T01760057  RH  045%=      5-min Rain = 0
KLA1 171512Z 11003KT 18/06 A3007 RMK A01 T01770059  RH  046%=      5-min Rain = 0
KLA1 171513Z 13003KT 18/06 A3007 RMK A01 T01780059  RH  046%=      5-min Rain = 0
KLA1 171514Z 11004KT 18/06 A3007 RMK A01 T01790060  RH  045%=      5-min Rain = 0
KLA1 171515Z 11004KT 18/06 A3007 RMK A01 T01810060  RH  045%=      5-min Rain = 0
KLA1 171516Z 10003KT 18/06 A3007 RMK A01 T01810059  RH  045%=      5-min Rain = 0
KLA1 171517Z 12004KT 18/06 A3007 RMK A01 T01820060  RH  045%=      5-min Rain = 0
KLA1 171518Z 13003KT 18/06 A3007 RMK A01 T01820059  RH  044%=      5-min Rain = 0
KLA1 171519Z 13003KT 18/06 A3007 RMK A01 T01820059  RH  045%=      5-min Rain = 0
KLA1 171520Z 13003KT 18/06 A3007 RMK A01 T01810059  RH  045%=      5-min Rain = 0
KLA1 171521Z 13005KT 18/06 A3007 RMK A01 T01820060  RH  045%=      5-min Rain = 0
KLA1 171522Z 15003KT 18/06 A3007 RMK A01 T01830061  RH  045%=      5-min Rain = 0
KLA1 171523Z 13003KT 18/06 A3007 RMK A01 T01840062  RH  045%=      5-min Rain = 0
KLA1 171524Z 13004KT 19/06 A3007 RMK A01 T01850060  RH  044%=      5-min Rain = 0
KLA1 171525Z 14005KT 18/06 A3007 RMK A01 T01840061  RH  044%=      5-min Rain = 0
KLA1 171526Z 13004KT 19/06 A3007 RMK A01 T01850062  RH  044%=      5-min Rain = 0
KLA1 171527Z 13002KT 19/06 A3007 RMK A01 T01850061  RH  044%=      5-min Rain = 0
KLA1 171528Z 14005KT 19/06 A3007 RMK A01 T01860062  RH  044%=      5-min Rain = 0
KLA1 171529Z 11004KT 19/06 A3007 RMK A01 T01860061  RH  044%=      5-min Rain = 0
KLA1 171530Z 10004KT 19/06 A3007 RMK A01 T01850062  RH  044%=      5-min Rain = 0
KLA1 171531Z 11005KT 19/06 A3007 RMK A01 T01850062  RH  044%=      5-min Rain = 0
KLA1 171532Z 15004KT 19/06 A3007 RMK A01 T01870063  RH  044%=      5-min Rain = 0
KLA1 171533Z 16002KT 19/06 A3007 RMK A01 T01880063  RH  044%=      5-min Rain = 0
KLA1 171534Z 13003KT 19/06 A3007 RMK A01 T01870063  RH  044%=      5-min Rain = 0
KLA1 171535Z 13004KT 19/06 A3007 RMK A01 T01880064  RH  044%=      5-min Rain = 0
KLA1 171536Z 13004KT 19/07 A3007 RMK A01 T01890065  RH  044%=      5-min Rain = 0
KLA1 171537Z 12004KT 19/07 A3007 RMK A01 T01900066  RH  044%=      5-min Rain = 0
KLA1 171538Z 13005KT 19/07 A3007 RMK A01 T01910067  RH  044%=      5-min Rain = 0
KLA1 171539Z 15004KT 19/07 A3007 RMK A01 T01920069  RH  045%=      5-min Rain = 0
KLA1 171540Z 12005KT 19/07 A3006 RMK A01 T01940069  RH  044%=      5-min Rain = 0
KLA1 171541Z 13006KT 19/07 A3006 RMK A01 T01940067  RH  043%=      5-min Rain = 0
KLA1 171542Z 13005KT 19/07 A3006 RMK A01 T01940068  RH  044%=      5-min Rain = 0
KLA1 171543Z 13004KT 20/07 A3006 RMK A01 T01950069  RH  044%=      5-min Rain = 0
KLA1 171544Z 14005KT 20/07 A3006 RMK A01 T01960070  RH  044%=      5-min Rain = 0
KLA1 171545Z 13006KT 20/07 A3006 RMK A01 T01980070  RH  043%=      5-min Rain = 0
KLA1 171546Z 11005KT 20/07 A3006 RMK A01 T01990069  RH  043%=      5-min Rain = 0
KLA1 171547Z 13005KT 20/07 A3006 RMK A01 T01990071  RH  043%=      5-min Rain = 0
KLA1 171548Z 11006KT 20/07 A3006 RMK A01 T02000070  RH  043%=      5-min Rain = 0
KLA1 171549Z 12006KT 20/07 A3006 RMK A01 T02000069  RH  043%=      5-min Rain = 0
KLA1 171550Z 13006KT 20/07 A3006 RMK A01 T01980069  RH  043%=      5-min Rain = 0
KLA1 171551Z 16005KT 20/07 A3006 RMK A01 T01990072  RH  044%=      5-min Rain = 0
KLA1 171552Z 15005KT 20/07 A3006 RMK A01 T02010071  RH  043%=      5-min Rain = 0
KLA1 171553Z 14005KT 20/07 A3006 RMK A01 T02010070  RH  043%=      5-min Rain = 0
KLA1 171554Z 14004KT 20/07 A3006 RMK A01 T02000070  RH  043%=      5-min Rain = 0
KLA1 171555Z 15005KT 20/07 A3006 RMK A01 T02000070  RH  043%=      5-min Rain = 0
KLA1 171556Z 16007KT 20/07 A3006 RMK A01 T02010073  RH  043%=      5-min Rain = 0
KLA1 171557Z 16005KT 20/07 A3006 RMK A01 T02020073  RH  043%=      5-min Rain = 0
KLA1 171558Z 17005KT 20/07 A3006 RMK A01 T02020073  RH  043%=      5-min Rain = 0
KLA1 171559Z 17004KT 20/07 A3006 RMK A01 T02020073  RH  043%=      5-min Rain = 0
KLA1 171600Z 18005KT 20/07 A3006 RMK A01 T02020073  RH  043%=      5-min Rain = 0
KLA1 171601Z 18006KT 20/07 A3005 RMK A01 T02030073  RH  043%=      5-min Rain = 0
KLA1 171602Z 18006KT 20/07 A3005 RMK A01 T02020074  RH  043%=      5-min Rain = 0
KLA1 171603Z 19008KT 20/08 A3005 RMK A01 T02040075  RH  043%=      5-min Rain = 0
KLA1 171604Z 20006KT 21/08 A3006 RMK A01 T02050075  RH  043%=      5-min Rain = 0
KLA1 171605Z 21005KT 21/08 A3006 RMK A01 T02050076  RH  043%=      5-min Rain = 0
KLA1 171606Z 19007KT 21/08 A3006 RMK A01 T02050077  RH  043%=      5-min Rain = 0
KLA1 171607Z 20005KT 21/08 A3006 RMK A01 T02050075  RH  043%=      5-min Rain = 0
KLA1 171608Z 21006KT 20/08 A3006 RMK A01 T02040075  RH  043%=      5-min Rain = 0
KLA1 171609Z 21004KT 20/08 A3006 RMK A01 T02030076  RH  044%=      5-min Rain = 0
KLA1 171610Z 20004KT 20/08 A3005 RMK A01 T02030075  RH  044%=      5-min Rain = 0
KLA1 171611Z 16006KT 20/08 A3005 RMK A01 T02040075  RH  043%=      5-min Rain = 0
KLA1 171612Z 15007KT 21/08 A3005 RMK A01 T02070075  RH  042%=      5-min Rain = 0
KLA1 171613Z 16006KT 21/07 A3005 RMK A01 T02080074  RH  042%=      5-min Rain = 0
KLA1 171614Z 16005KT 21/07 A3005 RMK A01 T02080074  RH  042%=      5-min Rain = 0
KLA1 171615Z 16005KT 21/08 A3005 RMK A01 T02090075  RH  042%=      5-min Rain = 0
KLA1 171616Z 18006KT 21/07 A3005 RMK A01 T02100074  RH  042%=      5-min Rain = 0
KLA1 171617Z 19004KT 21/07 A3005 RMK A01 T02090073  RH  041%=      5-min Rain = 0
KLA1 171618Z 18004KT 21/07 A3005 RMK A01 T02090074  RH  042%=      5-min Rain = 0
KLA1 171619Z 19005KT 21/07 A3005 RMK A01 T02090073  RH  041%=      5-min Rain = 0
KLA1 171620Z 14006KT 21/07 A3005 RMK A01 T02100072  RH  041%=      5-min Rain = 0
KLA1 171621Z 13006KT 21/07 A3005 RMK A01 T02110070  RH  040%=      5-min Rain = 0
KLA1 171622Z 14005KT 21/07 A3005 RMK A01 T02080073  RH  041%=      5-min Rain = 0
KLA1 171623Z 16005KT 21/07 A3005 RMK A01 T02090074  RH  042%=      5-min Rain = 0
KLA1 171624Z 18005KT 21/07 A3005 RMK A01 T02100073  RH  041%=      5-min Rain = 0
KLA1 171625Z 21003KT 21/07 A3005 RMK A01 T02080071  RH  041%=      5-min Rain = 0
KLA1 171626Z 20003KT 21/07 A3005 RMK A01 T02060071  RH  042%=      5-min Rain = 0
KLA1 171627Z 20003KT 21/07 A3005 RMK A01 T02060072  RH  042%=      5-min Rain = 0
KLA1 171628Z 18006KT 21/07 A3005 RMK A01 T02060073  RH  042%=      5-min Rain = 0
KLA1 171629Z 17005KT 21/07 A3005 RMK A01 T02080072  RH  041%=      5-min Rain = 0
KLA1 171630Z 16004KT 21/07 A3005 RMK A01 T02090072  RH  041%=      5-min Rain = 0
KLA1 171631Z 15002KT 21/07 A3004 RMK A01 T02090073  RH  041%=      5-min Rain = 0
KLA1 171632Z 18003KT 21/07 A3004 RMK A01 T02100073  RH  041%=      5-min Rain = 0
KLA1 171633Z 16003KT 21/07 A3004 RMK A01 T02110073  RH  041%=      5-min Rain = 0
KLA1 171634Z 15005KT 21/07 A3004 RMK A01 T02130073  RH  040%=      5-min Rain = 0
KLA1 171635Z 14006KT 22/07 A3004 RMK A01 T02150073  RH  040%=      5-min Rain = 0
KLA1 171636Z 13005KT 22/07 A3004 RMK A01 T02150071  RH  039%=      5-min Rain = 0
KLA1 171637Z 11004KT 21/07 A3004 RMK A01 T02130072  RH  040%=      5-min Rain = 0
KLA1 171638Z 10005KT 21/07 A3004 RMK A01 T02130072  RH  040%=      5-min Rain = 0
KLA1 171639Z 14004KT 21/07 A3004 RMK A01 T02120073  RH  040%=      5-min Rain = 0
KLA1 171640Z 13004KT 21/07 A3004 RMK A01 T02120074  RH  041%=      5-min Rain = 0
KLA1 171641Z 12006KT 22/08 A3004 RMK A01 T02150076  RH  041%=      5-min Rain = 0
KLA1 171642Z 12006KT 22/07 A3004 RMK A01 T02170073  RH  039%=      5-min Rain = 0
KLA1 171643Z 14007KT 22/07 A3004 RMK A01 T02170073  RH  039%=      5-min Rain = 0
KLA1 171644Z 15004KT 22/07 A3004 RMK A01 T02160073  RH  040%=      5-min Rain = 0
KLA1 171645Z 16003KT 22/07 A3004 RMK A01 T02150073  RH  040%=      5-min Rain = 0
KLA1 171646Z 14001KT 21/07 A3004 RMK A01 T02140073  RH  040%=      5-min Rain = 0
KLA1 171647Z 10002KT 21/07 A3004 RMK A01 T02140074  RH  040%=      5-min Rain = 0
KLA1 171648Z 20004KT 21/07 A3004 RMK A01 T02140074  RH  040%=      5-min Rain = 0
KLA1 171649Z 19006KT 22/08 A3004 RMK A01 T02150075  RH  040%=      5-min Rain = 0
KLA1 171650Z 18004KT 22/08 A3004 RMK A01 T02170076  RH  040%=      5-min Rain = 0
KLA1 171651Z 17005G10KT 22/08 A3004 RMK A01 T02180076  RH  040%=      5-min Rain = 0
KLA1 171652Z 18005KT 22/08 A3004 RMK A01 T02190075  RH  039%=      5-min Rain = 0
KLA1 171653Z 16005KT 22/08 A3004 RMK A01 T02190076  RH  040%=      5-min Rain = 0
KLA1 171654Z 14005KT 22/08 A3004 RMK A01 T02200078  RH  040%=      5-min Rain = 0
KLA1 171655Z 15004KT 22/08 A3004 RMK A01 T02210079  RH  040%=      5-min Rain = 0
KLA1 171656Z 15003KT 22/08 A3004 RMK A01 T02200078  RH  040%=      5-min Rain = 0
KLA1 171657Z 15003KT 22/08 A3004 RMK A01 T02200079  RH  040%=      5-min Rain = 0
KLA1 171658Z 18002KT 22/08 A3004 RMK A01 T02200079  RH  040%=      5-min Rain = 0
KLA1 171659Z 14007KT 22/08 A3004 RMK A01 T02230080  RH  040%=      5-min Rain = 0
KLA1 171700Z 14006KT 23/08 A3004 RMK A01 T02250079  RH  039%=      5-min Rain = 0
KLA1 171701Z 13004KT 23/08 A3004 RMK A01 T02250079  RH  039%=      5-min Rain = 0
KLA1 171702Z 14003KT 23/08 A3004 RMK A01 T02250080  RH  039%=      5-min Rain = 0
KLA1 171703Z 17004KT 23/08 A3004 RMK A01 T02250079  RH  039%=      5-min Rain = 0
KLA1 171704Z 18003KT 22/08 A3004 RMK A01 T02240081  RH  040%=      5-min Rain = 0
KLA1 171705Z 20005KT 23/09 A3003 RMK A01 T02250086  RH  041%=      5-min Rain = 0
KLA1 171706Z 21005KT 23/09 A3003 RMK A01 T02260088  RH  041%=      5-min Rain = 0
KLA1 171707Z 15002KT 23/09 A3003 RMK A01 T02260086  RH  041%=      5-min Rain = 0
KLA1 171708Z 18004KT 23/09 A3003 RMK A01 T02250086  RH  041%=      5-min Rain = 0
KLA1 171709Z 17004KT 23/09 A3003 RMK A01 T02250085  RH  041%=      5-min Rain = 0
KLA1 171710Z 17006KT 23/08 A3003 RMK A01 T02260084  RH  040%=      5-min Rain = 0
KLA1 171711Z 17007KT 23/08 A3003 RMK A01 T02270082  RH  040%=      5-min Rain = 0
KLA1 171712Z 16005KT 23/08 A3003 RMK A01 T02260083  RH  040%=      5-min Rain = 0
KLA1 171713Z 17004KT 23/08 A3003 RMK A01 T02250081  RH  040%=      5-min Rain = 0
KLA1 171714Z 13001KT 22/08 A3003 RMK A01 T02240081  RH  040%=      5-min Rain = 0
KLA1 171715Z 12002KT 22/08 A3003 RMK A01 T02230081  RH  040%=      5-min Rain = 0
KLA1 171716Z 12001KT 22/08 A3003 RMK A01 T02240080  RH  039%=      5-min Rain = 0
KLA1 171717Z 06000KT 23/08 A3003 RMK A01 T02260082  RH  040%=      5-min Rain = 0
KLA1 171718Z 19003KT 23/08 A3003 RMK A01 T02290083  RH  039%=      5-min Rain = 0
KLA1 171719Z 18005KT 23/09 A3003 RMK A01 T02310086  RH  040%=      5-min Rain = 0
KLA1 171720Z 15005KT 23/09 A3003 RMK A01 T02340087  RH  039%=      5-min Rain = 0
KLA1 171721Z 15006KT 24/09 A3003 RMK A01 T02350086  RH  038%=      5-min Rain = 0
KLA1 171722Z 15007KT 24/09 A3003 RMK A01 T02360085  RH  038%=      5-min Rain = 0
KLA1 171723Z 14005KT 24/09 A3003 RMK A01 T02350085  RH  038%=      5-min Rain = 0
KLA1 171724Z 17006KT 23/08 A3003 RMK A01 T02340084  RH  038%=      5-min Rain = 0
KLA1 171725Z 19005KT 23/09 A3003 RMK A01 T02330085  RH  039%=      5-min Rain = 0
KLA1 171726Z 18008KT 23/09 A3003 RMK A01 T02330087  RH  039%=      5-min Rain = 0
KLA1 171727Z 18007KT 23/09 A3003 RMK A01 T02340088  RH  039%=      5-min Rain = 0
KLA1 171728Z 15005KT 23/09 A3003 RMK A01 T02330088  RH  039%=      5-min Rain = 0
KLA1 171729Z 17003KT 23/09 A3003 RMK A01 T02320088  RH  040%=      5-min Rain = 0
KLA1 171730Z 15006KT 23/09 A3003 RMK A01 T02330088  RH  040%=      5-min Rain = 0
KLA1 171731Z 14005KT 24/09 A3003 RMK A01 T02380087  RH  038%=      5-min Rain = 0
KLA1 171732Z 17006KT 24/09 A3003 RMK A01 T02400086  RH  037%=      5-min Rain = 0
KLA1 171733Z 18004KT 24/09 A3003 RMK A01 T02410093  RH  039%=      5-min Rain = 0
KLA1 171734Z 18003KT 24/09 A3003 RMK A01 T02420090  RH  038%=      5-min Rain = 0
KLA1 171735Z 19001KT 24/09 A3003 RMK A01 T02420090  RH  038%=      5-min Rain = 0
KLA1 171736Z 19004KT 24/09 A3003 RMK A01 T02420091  RH  038%=      5-min Rain = 0
KLA1 171737Z 19004KT 24/09 A3003 RMK A01 T02420093  RH  039%=      5-min Rain = 0
KLA1 171738Z 15004KT 24/09 A3003 RMK A01 T02390088  RH  038%=      5-min Rain = 0
KLA1 171739Z 16008KT 24/08 A3002 RMK A01 T02370082  RH  037%=      5-min Rain = 0
KLA1 171740Z 15007KT 24/08 A3002 RMK A01 T02370082  RH  037%=      5-min Rain = 0
KLA1 171741Z 18006KT 24/09 A3002 RMK A01 T02390089  RH  039%=      5-min Rain = 0
KLA1 171742Z 17004KT 24/09 A3002 RMK A01 T02400092  RH  039%=      5-min Rain = 0
KLA1 171743Z 17008KT 24/09 A3002 RMK A01 T02390093  RH  039%=      5-min Rain = 0
KLA1 171744Z 17005KT 24/09 A3002 RMK A01 T02390093  RH  040%=      5-min Rain = 0
KLA1 171745Z 17006KT 24/09 A3002 RMK A01 T02410094  RH  039%=      5-min Rain = 0
KLA1 171746Z 18006KT 24/10 A3002 RMK A01 T02440096  RH  039%=      5-min Rain = 0
KLA1 171747Z 19007KT 24/10 A3002 RMK A01 T02440102  RH  041%=      5-min Rain = 0
KLA1 171748Z 18008KT 25/10 A3002 RMK A01 T02450100  RH  040%=      5-min Rain = 0
KLA1 171749Z 17007KT 24/10 A3002 RMK A01 T02430097  RH  040%=      5-min Rain = 0
KLA1 171750Z 16007KT 24/10 A3002 RMK A01 T02420095  RH  039%=      5-min Rain = 0
KLA1 171751Z 17003KT 24/09 A3002 RMK A01 T02420093  RH  039%=      5-min Rain = 0
KLA1 171752Z 17004KT 24/09 A3002 RMK A01 T02410093  RH  039%=      5-min Rain = 0
KLA1 171753Z 17006KT 24/09 A3002 RMK A01 T02400094  RH  039%=      5-min Rain = 0
KLA1 171754Z 15005KT 24/09 A3002 RMK A01 T02420094  RH  039%=      5-min Rain = 0
KLA1 171755Z 19006KT 25/09 A3002 RMK A01 T02450093  RH  038%=      5-min Rain = 0
KLA1 171756Z 18005KT 25/09 A3002 RMK A01 T02460094  RH  038%=      5-min Rain = 0
KLA1 171757Z 20004KT 25/10 A3002 RMK A01 T02460095  RH  038%=      5-min Rain = 0
KLA1 171758Z 18005KT 25/10 A3002 RMK A01 T02450095  RH  039%=      5-min Rain = 0
KLA1 171759Z 17008KT 24/10 A3002 RMK A01 T02430096  RH  039%=      5-min Rain = 0
KLA1 171800Z 17007KT 24/10 A3002 RMK A01 T02430099  RH  040%=      5-min Rain = 0
KLA1 171801Z 17007KT 24/10 A3001 RMK A01 T02410098  RH  040%=      5-min Rain = 0
KLA1 171802Z 18007KT 24/10 A3001 RMK A01 T02430098  RH  040%=      5-min Rain = 0
KLA1 171803Z 18007KT 25/10 A3001 RMK A01 T02460096  RH  039%=      5-min Rain = 0
KLA1 171804Z 17004KT 25/10 A3001 RMK A01 T02470096  RH  039%=      5-min Rain = 0
KLA1 171805Z 15001KT 25/10 A3001 RMK A01 T02460095  RH  038%=      5-min Rain = 0
KLA1 171806Z 18004KT 25/10 A3001 RMK A01 T02450096  RH  039%=      5-min Rain = 0
KLA1 171807Z 19004KT 25/10 A3001 RMK A01 T02450095  RH  039%=      5-min Rain = 0
KLA1 171808Z 18007KT 24/10 A3001 RMK A01 T02440097  RH  039%=      5-min Rain = 0
KLA1 171809Z 17008KT 24/10 A3001 RMK A01 T02440097  RH  039%=      5-min Rain = 0
KLA1 171810Z 18006KT 25/10 A3001 RMK A01 T02450098  RH  039%=      5-min Rain = 0
KLA1 171811Z 17008KT 24/10 A3001 RMK A01 T02430099  RH  040%=      5-min Rain = 0
KLA1 171812Z 16009KT 24/10 A3001 RMK A01 T02440104  RH  041%=      5-min Rain = 0
KLA1 171813Z 17008KT 25/10 A3001 RMK A01 T02450104  RH  041%=      5-min Rain = 0
KLA1 171814Z 17005KT 24/10 A3001 RMK A01 T02440104  RH  041%=      5-min Rain = 0
KLA1 171815Z 17007KT 25/11 A30 RMK A01 T02450107  RH  042%=      5-min Rain = 0
KLA1 171816Z 17005KT 25/11 A30 RMK A01 T02470105  RH  041%=      5-min Rain = 0
KLA1 171817Z 17005KT 25/11 A30 RMK A01 T02470107  RH  041%=      5-min Rain = 0
KLA1 171818Z 16006KT 25/11 A30 RMK A01 T02470108  RH  042%=      5-min Rain = 0
KLA1 171819Z 17009KT 25/11 A30 RMK A01 T02480108  RH  041%=      5-min Rain = 0
KLA1 171820Z 17009KT 25/10 A30 RMK A01 T02490104  RH  040%=      5-min Rain = 0
KLA1 171821Z 18007KT 25/10 A30 RMK A01 T02490104  RH  040%=      5-min Rain = 0
KLA1 171822Z 19006KT 25/11 A30 RMK A01 T02470107  RH  041%=      5-min Rain = 0
KLA1 171823Z 15005KT 25/11 A30 RMK A01 T02460108  RH  042%=      5-min Rain = 0
KLA1 171824Z 15005KT 25/11 A30 RMK A01 T02470107  RH  041%=      5-min Rain = 0
KLA1 171825Z 15009KT 25/11 A30 RMK A01 T02480107  RH  041%=      5-min Rain = 0
KLA1 171826Z 16008KT 25/11 A30 RMK A01 T02480106  RH  041%=      5-min Rain = 0
KLA1 171827Z 15006KT 25/11 A2999 RMK A01 T02470105  RH  041%=      5-min Rain = 0
KLA1 171828Z 15004KT 25/10 A2999 RMK A01 T02470104  RH  041%=      5-min Rain = 0
KLA1 171829Z 19004KT 25/11 A2999 RMK A01 T02490106  RH  041%=      5-min Rain = 0
KLA1 171830Z 19007KT 25/11 A2999 RMK A01 T02540114  RH  041%=      5-min Rain = 0
KLA1 171831Z 17008KT 26/12 A2999 RMK A01 T02560117  RH  042%=      5-min Rain = 0
KLA1 171832Z 17006KT 26/12 A2999 RMK A01 T02570119  RH  042%=      5-min Rain = 0
KLA1 171833Z 15008KT 26/12 A2999 RMK A01 T02570120  RH  042%=      5-min Rain = 0
KLA1 171834Z 16007KT 26/11 A2999 RMK A01 T02560113  RH  041%=      5-min Rain = 0
KLA1 171835Z 15006KT 25/11 A2999 RMK A01 T02510110  RH  041%=      5-min Rain = 0
KLA1 171836Z 12006KT 25/11 A2999 RMK A01 T02510110  RH  041%=      5-min Rain = 0
KLA1 171837Z 14006KT 25/11 A2999 RMK A01 T02490108  RH  041%=      5-min Rain = 0
KLA1 171838Z 15008KT 25/11 A2999 RMK A01 T02500109  RH  041%=      5-min Rain = 0
KLA1 171839Z 17005G11KT 25/11 A2999 RMK A01 T02530106  RH  039%=      5-min Rain = 0
KLA1 171840Z 16008KT 25/11 A2999 RMK A01 T02540108  RH  040%=      5-min Rain = 0
KLA1 171841Z 15007KT 26/11 A2999 RMK A01 T02560109  RH  040%=      5-min Rain = 0
KLA1 171842Z 15005KT 26/11 A2998 RMK A01 T02560109  RH  040%=      5-min Rain = 0
KLA1 171843Z 16007KT 26/11 A2998 RMK A01 T02550111  RH  041%=      5-min Rain = 0
KLA1 171844Z 15008KT 26/11 A2998 RMK A01 T02560114  RH  041%=      5-min Rain = 0
KLA1 171845Z 16009KT 26/11 A2998 RMK A01 T02570110  RH  040%=      5-min Rain = 0
KLA1 171846Z 14006KT 26/11 A2998 RMK A01 T02560108  RH  039%=      5-min Rain = 0
KLA1 171847Z 14007KT 25/11 A2998 RMK A01 T02530107  RH  040%=      5-min Rain = 0
KLA1 171848Z 17003KT 25/11 A2998 RMK A01 T02520106  RH  040%=      5-min Rain = 0
KLA1 171849Z 18006KT 25/11 A2998 RMK A01 T02520107  RH  040%=      5-min Rain = 0
KLA1 171850Z 16008KT 26/11 A2998 RMK A01 T02560113  RH  041%=      5-min Rain = 0
KLA1 171851Z 15009KT 26/11 A2998 RMK A01 T02600114  RH  040%=      5-min Rain = 0
KLA1 171852Z 16007KT 26/12 A2998 RMK A01 T02610115  RH  040%=      5-min Rain = 0
KLA1 171853Z 16010KT 26/11 A2998 RMK A01 T02600114  RH  040%=      5-min Rain = 0
KLA1 171854Z 15007KT 26/12 A2998 RMK A01 T02590115  RH  041%=      5-min Rain = 0
KLA1 171855Z 16009KT 26/12 A2998 RMK A01 T02590116  RH  041%=      5-min Rain = 0
KLA1 171856Z 17008KT 26/11 A2998 RMK A01 T02600114  RH  040%=      5-min Rain = 0
KLA1 171857Z 16008KT 26/11 A2998 RMK A01 T02590114  RH  040%=      5-min Rain = 0
KLA1 171858Z 16008KT 26/11 A2998 RMK A01 T02590112  RH  040%=      5-min Rain = 0
KLA1 171859Z 15006KT 26/11 A2998 RMK A01 T02590110  RH  039%=      5-min Rain = 0
KLA1 171900Z 14006KT 26/11 A2998 RMK A01 T02590110  RH  039%=      5-min Rain = 0
KLA1 171901Z 17005KT 26/11 A2998 RMK A01 T02580110  RH  039%=      5-min Rain = 0
KLA1 171902Z 20008KT 26/11 A2997 RMK A01 T02590111  RH  039%=      5-min Rain = 0
KLA1 171903Z 21007KT 26/11 A2997 RMK A01 T02580111  RH  040%=      5-min Rain = 0
KLA1 171904Z 21006KT 26/11 A2997 RMK A01 T02550110  RH  040%=      5-min Rain = 0
KLA1 171905Z 21006KT 25/11 A2997 RMK A01 T02540111  RH  041%=      5-min Rain = 0
KLA1 171906Z 21009KT 26/11 A2997 RMK A01 T02570113  RH  041%=      5-min Rain = 0
KLA1 171907Z 19008KT 26/11 A2997 RMK A01 T02580114  RH  041%=      5-min Rain = 0
KLA1 171908Z 16004KT 26/11 A2997 RMK A01 T02600112  RH  040%=      5-min Rain = 0
KLA1 171909Z 18004KT 26/11 A2997 RMK A01 T02600109  RH  039%=      5-min Rain = 0
KLA1 171910Z 17005KT 26/11 A2997 RMK A01 T02590112  RH  040%=      5-min Rain = 0
KLA1 171911Z 16006G11KT 26/11 A2997 RMK A01 T02600113  RH  040%=      5-min Rain = 0
KLA1 171912Z 17006KT 26/11 A2997 RMK A01 T02600113  RH  040%=      5-min Rain = 0
KLA1 171913Z 18007KT 26/11 A2996 RMK A01 T02600113  RH  040%=      5-min Rain = 0
KLA1 171914Z 16005KT 26/11 A2996 RMK A01 T02600113  RH  040%=      5-min Rain = 0
KLA1 171915Z 17003G8KT 26/11 A2996 RMK A01 T02610114  RH  040%=      5-min Rain = 0
KLA1 171916Z 18007KT 26/12 A2996 RMK A01 T02610115  RH  040%=      5-min Rain = 0
KLA1 171917Z 18005KT 26/11 A2996 RMK A01 T02610112  RH  039%=      5-min Rain = 0
KLA1 171918Z 18006KT 26/11 A2996 RMK A01 T02600112  RH  039%=      5-min Rain = 0
KLA1 171919Z 19005KT 26/11 A2996 RMK A01 T02590111  RH  040%=      5-min Rain = 0
KLA1 171920Z 19006KT 26/11 A2996 RMK A01 T02590109  RH  039%=      5-min Rain = 0
KLA1 171921Z 20007KT 26/11 A2996 RMK A01 T02580109  RH  039%=      5-min Rain = 0
KLA1 171922Z 20007KT 26/11 A2996 RMK A01 T02590111  RH  040%=      5-min Rain = 0
KLA1 171923Z 22006KT 26/11 A2995 RMK A01 T02580111  RH  040%=      5-min Rain = 0
KLA1 171924Z 19006KT 26/11 A2995 RMK A01 T02570110  RH  040%=      5-min Rain = 0
KLA1 171925Z 19006KT 26/11 A2995 RMK A01 T02600112  RH  040%=      5-min Rain = 0
KLA1 171926Z 20003KT 26/11 A2995 RMK A01 T02610111  RH  039%=      5-min Rain = 0
KLA1 171927Z 15002KT 26/11 A2995 RMK A01 T02610112  RH  039%=      5-min Rain = 0
KLA1 171928Z 17005KT 26/11 A2995 RMK A01 T02630113  RH  039%=      5-min Rain = 0
KLA1 171929Z 18008KT 26/11 A2995 RMK A01 T02640112  RH  039%=      5-min Rain = 0
KLA1 171930Z 19005KT 26/11 A2995 RMK A01 T02630112  RH  039%=      5-min Rain = 0
KLA1 171931Z 17005KT 26/11 A2995 RMK A01 T02610113  RH  039%=      5-min Rain = 0
KLA1 171932Z 13003KT 26/11 A2995 RMK A01 T02620114  RH  039%=      5-min Rain = 0
KLA1 171933Z 20004KT 26/12 A2995 RMK A01 T02630115  RH  039%=      5-min Rain = 0
KLA1 171934Z 21004KT 27/12 A2995 RMK A01 T02650116  RH  039%=      5-min Rain = 0
KLA1 171935Z 20006KT 27/11 A2994 RMK A01 T02670114  RH  038%=      5-min Rain = 0
KLA1 171936Z 20005KT 27/11 A2994 RMK A01 T02690114  RH  038%=      5-min Rain = 0
KLA1 171937Z 21004KT 27/11 A2994 RMK A01 T02690113  RH  038%=      5-min Rain = 0
KLA1 171938Z 17005KT 27/11 A2994 RMK A01 T02670114  RH  038%=      5-min Rain = 0
KLA1 171939Z 17007KT 27/12 A2994 RMK A01 T02680115  RH  039%=      5-min Rain = 0
KLA1 171940Z 13009KT 27/12 A2994 RMK A01 T02660116  RH  039%=      5-min Rain = 0
KLA1 171941Z 13008KT 27/12 A2994 RMK A01 T02670115  RH  039%=      5-min Rain = 0
KLA1 171942Z 16008KT 27/11 A2994 RMK A01 T02670114  RH  038%=      5-min Rain = 0
KLA1 171943Z 16007KT 27/11 A2994 RMK A01 T02670114  RH  038%=      5-min Rain = 0
KLA1 171944Z 14008KT 27/12 A2994 RMK A01 T02680115  RH  038%=      5-min Rain = 0
KLA1 171945Z 15008KT 27/12 A2994 RMK A01 T02690117  RH  039%=      5-min Rain = 0
KLA1 171946Z 14008KT 27/12 A2994 RMK A01 T02700116  RH  038%=      5-min Rain = 0
KLA1 171947Z 16008KT 27/12 A2994 RMK A01 T02690117  RH  039%=      5-min Rain = 0
KLA1 171948Z 15010KT 27/11 A2994 RMK A01 T02690114  RH  038%=      5-min Rain = 0
KLA1 171949Z 16008KT 27/11 A2994 RMK A01 T02680114  RH  038%=      5-min Rain = 0
KLA1 171950Z 17007KT 27/12 A2994 RMK A01 T02670116  RH  039%=      5-min Rain = 0
KLA1 171951Z 18009KT 27/12 A2994 RMK A01 T02700115  RH  038%=      5-min Rain = 0
KLA1 171952Z 20006KT 27/11 A2994 RMK A01 T02690114  RH  038%=      5-min Rain = 0
KLA1 171953Z 19007KT 27/12 A2994 RMK A01 T02660115  RH  039%=      5-min Rain = 0
KLA1 171954Z 19004KT 27/11 A2994 RMK A01 T02650114  RH  039%=      5-min Rain = 0
KLA1 171955Z 17004KT 27/12 A2993 RMK A01 T02650115  RH  039%=      5-min Rain = 0
KLA1 171956Z 15006KT 27/12 A2993 RMK A01 T02670115  RH  039%=      5-min Rain = 0
KLA1 171957Z 12006KT 27/11 A2993 RMK A01 T02690114  RH  038%=      5-min Rain = 0
KLA1 171958Z 10004KT 27/11 A2993 RMK A01 T02690114  RH  038%=      5-min Rain = 0
KLA1 171959Z 15003KT 27/12 A2993 RMK A01 T02690115  RH  038%=      5-min Rain = 0
KLA1 172000Z 19007KT 27/12 A2993 RMK A01 T02690116  RH  039%=      5-min Rain = 0
KLA1 172001Z 16009KT 27/12 A2993 RMK A01 T02700117  RH  038%=      5-min Rain = 0
KLA1 172002Z 14009KT 27/12 A2993 RMK A01 T02710116  RH  038%=      5-min Rain = 0
KLA1 172003Z 15007KT 27/12 A2993 RMK A01 T02720116  RH  038%=      5-min Rain = 0
KLA1 172004Z 14007KT 27/11 A2993 RMK A01 T02700113  RH  038%=      5-min Rain = 0
KLA1 172005Z 13006KT 27/11 A2993 RMK A01 T02670113  RH  038%=      5-min Rain = 0
KLA1 172006Z 13006KT 27/11 A2993 RMK A01 T02680113  RH  038%=      5-min Rain = 0
KLA1 172007Z 12006KT 27/11 A2993 RMK A01 T02700113  RH  038%=      5-min Rain = 0
KLA1 172008Z 11005KT 27/11 A2993 RMK A01 T02700112  RH  037%=      5-min Rain = 0
KLA1 172009Z 13006KT 27/11 A2992 RMK A01 T02680111  RH  038%=      5-min Rain = 0
KLA1 172010Z 12007KT 27/11 A2992 RMK A01 T02680111  RH  037%=      5-min Rain = 0
KLA1 172011Z 12007KT 27/11 A2992 RMK A01 T02690110  RH  037%=      5-min Rain = 0
KLA1 172012Z 13006KT 27/11 A2992 RMK A01 T02670110  RH  037%=      5-min Rain = 0
KLA1 172013Z 14004KT 27/11 A2992 RMK A01 T02680109  RH  037%=      5-min Rain = 0
KLA1 172014Z 17004KT 27/11 A2992 RMK A01 T02680109  RH  037%=      5-min Rain = 0
KLA1 172015Z 18006KT 27/11 A2992 RMK A01 T02680110  RH  037%=      5-min Rain = 0
KLA1 172016Z 19007KT 27/11 A2992 RMK A01 T02700110  RH  037%=      5-min Rain = 0
KLA1 172017Z 20006KT 27/11 A2992 RMK A01 T02690111  RH  037%=      5-min Rain = 0
KLA1 172018Z 19008KT 27/11 A2992 RMK A01 T02710114  RH  038%=      5-min Rain = 0
KLA1 172019Z 18008KT 27/11 A2992 RMK A01 T02740114  RH  037%=      5-min Rain = 0
KLA1 172020Z 19008KT 27/12 A2992 RMK A01 T02730115  RH  037%=      5-min Rain = 0
KLA1 172021Z 21008KT 27/12 A2992 RMK A01 T02710115  RH  038%=      5-min Rain = 0
KLA1 172022Z 22005KT 27/12 A2992 RMK A01 T02700115  RH  038%=      5-min Rain = 0
KLA1 172023Z 20007KT 27/11 A2992 RMK A01 T02700114  RH  038%=      5-min Rain = 0
KLA1 172024Z 22008KT 27/11 A2992 RMK A01 T02700114  RH  038%=      5-min Rain = 0
KLA1 172025Z 20005KT 27/11 A2992 RMK A01 T02700113  RH  038%=      5-min Rain = 0
KLA1 172026Z 20003KT 27/11 A2992 RMK A01 T02690113  RH  038%=      5-min Rain = 0
KLA1 172027Z 15003KT 27/11 A2992 RMK A01 T02710114  RH  037%=      5-min Rain = 0
KLA1 172028Z 22003KT 27/11 A2992 RMK A01 T02730113  RH  037%=      5-min Rain = 0
KLA1 172029Z 19004KT 28/11 A2992 RMK A01 T02750113  RH  037%=      5-min Rain = 0
KLA1 172030Z 17003KT 28/11 A2992 RMK A01 T02770113  RH  036%=      5-min Rain = 0
KLA1 172031Z 16004KT 28/11 A2992 RMK A01 T02760114  RH  036%=      5-min Rain = 0
KLA1 172032Z 15004KT 28/11 A2992 RMK A01 T02770113  RH  036%=      5-min Rain = 0
KLA1 172033Z 09003KT 28/11 A2992 RMK A01 T02750112  RH  036%=      5-min Rain = 0
KLA1 172034Z 10005KT 27/11 A2992 RMK A01 T02740113  RH  037%=      5-min Rain = 0
KLA1 172035Z 15007KT 27/11 A2992 RMK A01 T02740114  RH  037%=      5-min Rain = 0
KLA1 172036Z 17010KT 28/11 A2992 RMK A01 T02750114  RH  037%=      5-min Rain = 0
KLA1 172037Z 17008KT 28/11 A2992 RMK A01 T02750114  RH  037%=      5-min Rain = 0
KLA1 172038Z 17009KT 27/11 A2992 RMK A01 T02740114  RH  037%=      5-min Rain = 0
KLA1 172039Z 18007KT 27/11 A2992 RMK A01 T02720113  RH  037%=      5-min Rain = 0
KLA1 172040Z 19009KT 27/11 A2992 RMK A01 T02710113  RH  037%=      5-min Rain = 0
KLA1 172041Z 20006KT 27/11 A2991 RMK A01 T02720113  RH  037%=      5-min Rain = 0
KLA1 172042Z 19005KT 27/11 A2991 RMK A01 T02720113  RH  037%=      5-min Rain = 0
KLA1 172043Z 17006KT 27/11 A2991 RMK A01 T02710112  RH  037%=      5-min Rain = 0
KLA1 172044Z 14005KT 27/11 A2991 RMK A01 T02700112  RH  037%=      5-min Rain = 0
KLA1 172045Z 16007KT 27/11 A2991 RMK A01 T02700113  RH  037%=      5-min Rain = 0
KLA1 172046Z 18006KT 27/11 A2991 RMK A01 T02710113  RH  037%=      5-min Rain = 0
KLA1 172047Z 16006KT 27/11 A2991 RMK A01 T02720113  RH  037%=      5-min Rain = 0
KLA1 172048Z 16005KT 27/11 A2991 RMK A01 T02720113  RH  037%=      5-min Rain = 0
KLA1 172049Z 13005KT 27/11 A2991 RMK A01 T02720113  RH  037%=      5-min Rain = 0
KLA1 172050Z 11007KT 27/11 A2991 RMK A01 T02720114  RH  037%=      5-min Rain = 0
KLA1 172051Z 09005KT 27/11 A2991 RMK A01 T02720114  RH  037%=      5-min Rain = 0
KLA1 172052Z 10007KT 27/11 A2991 RMK A01 T02710114  RH  038%=      5-min Rain = 0
KLA1 172053Z 13008KT 27/11 A2991 RMK A01 T02710114  RH  038%=      5-min Rain = 0
KLA1 172054Z 13011KT 27/11 A2991 RMK A01 T02740114  RH  037%=      5-min Rain = 0
KLA1 172055Z 12006KT 27/11 A2991 RMK A01 T02730113  RH  037%=      5-min Rain = 0
KLA1 172056Z 12009KT 27/11 A299 RMK A01 T02710114  RH  038%=      5-min Rain = 0
KLA1 172057Z 12006KT 27/12 A299 RMK A01 T02720115  RH  037%=      5-min Rain = 0
KLA1 172058Z 13007KT 27/12 A299 RMK A01 T02730115  RH  037%=      5-min Rain = 0
KLA1 172059Z 12008KT 28/12 A299 RMK A01 T02760115  RH  037%=      5-min Rain = 0
KLA1 172100Z 13006KT 28/12 A299 RMK A01 T02770115  RH  037%=      5-min Rain = 0
KLA1 172101Z 14004KT 28/12 A299 RMK A01 T02800115  RH  036%=      5-min Rain = 0
KLA1 172102Z 15005KT 28/11 A299 RMK A01 T02800114  RH  036%=      5-min Rain = 0
KLA1 172103Z 16007KT 28/11 A299 RMK A01 T02800114  RH  036%=      5-min Rain = 0
KLA1 172104Z 18009KT 28/11 A299 RMK A01 T02810114  RH  035%=      5-min Rain = 0
KLA1 172105Z 19005KT 28/11 A299 RMK A01 T02790113  RH  036%=      5-min Rain = 0
KLA1 172106Z 16007G13KT 28/11 A299 RMK A01 T02760114  RH  036%=      5-min Rain = 0
KLA1 172107Z 14009KT 28/11 A299 RMK A01 T02760114  RH  037%=      5-min Rain = 0
KLA1 172108Z 12007KT 28/11 A299 RMK A01 T02760114  RH  036%=      5-min Rain = 0
KLA1 172109Z 14006G12KT 28/12 A299 RMK A01 T02760115  RH  037%=      5-min Rain = 0
KLA1 172110Z 15010KT 28/11 A299 RMK A01 T02760114  RH  037%=      5-min Rain = 0
KLA1 172111Z 14006KT 28/12 A299 RMK A01 T02760115  RH  037%=      5-min Rain = 0
KLA1 172112Z 14005KT 28/12 A299 RMK A01 T02760115  RH  037%=      5-min Rain = 0
KLA1 172113Z 15008KT 28/12 A299 RMK A01 T02760116  RH  037%=      5-min Rain = 0
KLA1 172114Z 16007KT 28/12 A299 RMK A01 T02770115  RH  036%=      5-min Rain = 0
KLA1 172115Z 13007KT 28/12 A299 RMK A01 T02770116  RH  037%=      5-min Rain = 0
KLA1 172116Z 12007KT 28/12 A299 RMK A01 T02770115  RH  036%=      5-min Rain = 0
KLA1 172117Z 11006KT 28/12 A299 RMK A01 T02770115  RH  036%=      5-min Rain = 0
KLA1 172118Z 10008G13KT 28/11 A299 RMK A01 T02750114  RH  037%=      5-min Rain = 0
KLA1 172119Z 11010KT 27/11 A299 RMK A01 T02740114  RH  037%=      5-min Rain = 0
KLA1 172120Z 14007KT 28/11 A299 RMK A01 T02750114  RH  037%=      5-min Rain = 0
KLA1 172121Z 15009KT 28/11 A299 RMK A01 T02770114  RH  036%=      5-min Rain = 0
KLA1 172122Z 17010KT 28/11 A299 RMK A01 T02780114  RH  036%=      5-min Rain = 0
KLA1 172123Z 14008KT 28/11 A299 RMK A01 T02770114  RH  036%=      5-min Rain = 0
KLA1 172124Z 15010KT 28/11 A299 RMK A01 T02750114  RH  037%=      5-min Rain = 0
KLA1 172125Z 15009KT 28/11 A299 RMK A01 T02760114  RH  037%=      5-min Rain = 0
KLA1 172126Z 14009KT 28/12 A299 RMK A01 T02760115  RH  037%=      5-min Rain = 0
KLA1 172127Z 15005KT 28/11 A299 RMK A01 T02750114  RH  037%=      5-min Rain = 0
KLA1 172128Z 16006KT 28/12 A299 RMK A01 T02750115  RH  037%=      5-min Rain = 0
KLA1 172129Z 17007KT 28/12 A299 RMK A01 T02770115  RH  036%=      5-min Rain = 0
KLA1 172130Z 16005KT 28/12 A299 RMK A01 T02770115  RH  036%=      5-min Rain = 0
KLA1 172131Z 16003KT 28/11 A2989 RMK A01 T02750114  RH  037%=      5-min Rain = 0
KLA1 172132Z 13005KT 27/12 A299 RMK A01 T02740115  RH  037%=      5-min Rain = 0
KLA1 172133Z 14008KT 27/12 A299 RMK A01 T02740115  RH  037%=      5-min Rain = 0
KLA1 172134Z 15011KT 28/12 A299 RMK A01 T02760117  RH  037%=      5-min Rain = 0
KLA1 172135Z 16010KT 28/12 A299 RMK A01 T02760116  RH  037%=      5-min Rain = 0
KLA1 172136Z 16007KT 28/12 A299 RMK A01 T02750116  RH  037%=      5-min Rain = 0
KLA1 172137Z 13005KT 27/12 A299 RMK A01 T02740116  RH  037%=      5-min Rain = 0
KLA1 172138Z 13007KT 27/12 A299 RMK A01 T02740115  RH  037%=      5-min Rain = 0
KLA1 172139Z 14005KT 28/12 A299 RMK A01 T02750116  RH  037%=      5-min Rain = 0
KLA1 172140Z 14008KT 28/12 A299 RMK A01 T02760115  RH  037%=      5-min Rain = 0
KLA1 172141Z 14009KT 28/12 A299 RMK A01 T02760116  RH  037%=      5-min Rain = 0
KLA1 172142Z 14008KT 28/12 A299 RMK A01 T02760116  RH  037%=      5-min Rain = 0
KLA1 172143Z 15009KT 28/12 A2989 RMK A01 T02760116  RH  037%=      5-min Rain = 0
KLA1 172144Z 14009KT 28/12 A2989 RMK A01 T02760115  RH  037%=      5-min Rain = 0
KLA1 172145Z 14009KT 28/11 A2989 RMK A01 T02770114  RH  036%=      5-min Rain = 0
KLA1 172146Z 13007KT 28/11 A2989 RMK A01 T02770114  RH  036%=      5-min Rain = 0
KLA1 172147Z 16005KT 28/11 A2989 RMK A01 T02760114  RH  036%=      5-min Rain = 0
KLA1 172148Z 15004KT 28/11 A2989 RMK A01 T02760113  RH  036%=      5-min Rain = 0
KLA1 172149Z 17005KT 28/11 A2989 RMK A01 T02760114  RH  036%=      5-min Rain = 0
KLA1 172150Z 15004KT 28/11 A2989 RMK A01 T02770114  RH  036%=      5-min Rain = 0
KLA1 172151Z 14004KT 28/11 A2989 RMK A01 T02770114  RH  036%=      5-min Rain = 0
KLA1 172152Z 14008KT 28/12 A2989 RMK A01 T02780115  RH  036%=      5-min Rain = 0
KLA1 172153Z 13007KT 28/11 A2989 RMK A01 T02790114  RH  036%=      5-min Rain = 0
KLA1 172154Z 15005KT 28/11 A2989 RMK A01 T02780114  RH  036%=      5-min Rain = 0
KLA1 172155Z 14003KT 28/11 A2989 RMK A01 T02770114  RH  036%=      5-min Rain = 0
KLA1 172156Z 19005KT 28/11 A2989 RMK A01 T02770114  RH  036%=      5-min Rain = 0
KLA1 172157Z 19005KT 28/11 A2988 RMK A01 T02770114  RH  036%=      5-min Rain = 0
KLA1 172158Z 18005KT 28/12 A2988 RMK A01 T02780115  RH  036%=      5-min Rain = 0
KLA1 172159Z 19003KT 28/11 A2988 RMK A01 T02790114  RH  036%=      5-min Rain = 0
KLA1 172200Z 17003KT 28/11 A2988 RMK A01 T02780114  RH  036%=      5-min Rain = 0
KLA1 172201Z 17004KT 28/12 A2988 RMK A01 T02790115  RH  036%=      5-min Rain = 0
KLA1 172202Z 19003KT 28/11 A2988 RMK A01 T02800114  RH  036%=      5-min Rain = 0
KLA1 172203Z 16006KT 28/12 A2988 RMK A01 T02790115  RH  036%=      5-min Rain = 0
KLA1 172204Z 16006KT 28/11 A2988 RMK A01 T02790114  RH  036%=      5-min Rain = 0
KLA1 172205Z 17006KT 28/11 A2988 RMK A01 T02770114  RH  036%=      5-min Rain = 0
KLA1 172206Z 18007KT 28/12 A2988 RMK A01 T02780115  RH  036%=      5-min Rain = 0
KLA1 172207Z 18003KT 28/11 A2988 RMK A01 T02780114  RH  036%=      5-min Rain = 0
KLA1 172208Z 13005KT 28/12 A2988 RMK A01 T02770115  RH  036%=      5-min Rain = 0
KLA1 172209Z 13005KT 28/12 A2988 RMK A01 T02780116  RH  037%=      5-min Rain = 0
KLA1 172210Z 12008KT 28/12 A2988 RMK A01 T02790116  RH  036%=      5-min Rain = 0
KLA1 172211Z 15008KT 28/12 A2988 RMK A01 T02790116  RH  036%=      5-min Rain = 0
KLA1 172212Z 13006KT 28/12 A2988 RMK A01 T02770115  RH  036%=      5-min Rain = 0
KLA1 172213Z 11006KT 28/11 A2988 RMK A01 T02750114  RH  037%=      5-min Rain = 0
KLA1 172214Z 12007KT 27/11 A2988 RMK A01 T02740114  RH  037%=      5-min Rain = 0
KLA1 172215Z 11006KT 28/12 A2988 RMK A01 T02750115  RH  037%=      5-min Rain = 0
KLA1 172216Z 16007KT 28/12 A2988 RMK A01 T02750115  RH  037%=      5-min Rain = 0
KLA1 172217Z 16006KT 28/11 A2988 RMK A01 T02760113  RH  036%=      5-min Rain = 0
KLA1 172218Z 17006KT 28/11 A2988 RMK A01 T02760114  RH  036%=      5-min Rain = 0
KLA1 172219Z 21005KT 28/11 A2988 RMK A01 T02760114  RH  036%=      5-min Rain = 0
KLA1 172220Z 21004G9KT 28/11 A2988 RMK A01 T02760114  RH  036%=      5-min Rain = 0
KLA1 172221Z 20007KT 28/11 A2988 RMK A01 T02770114  RH  036%=      5-min Rain = 0
KLA1 172222Z 20005KT 28/11 A2988 RMK A01 T02760114  RH  037%=      5-min Rain = 0
KLA1 172223Z 20004KT 27/11 A2988 RMK A01 T02740114  RH  037%=      5-min Rain = 0
KLA1 172224Z 17006KT 28/12 A2988 RMK A01 T02750115  RH  037%=      5-min Rain = 0
KLA1 172225Z 16007KT 28/12 A2988 RMK A01 T02780115  RH  036%=      5-min Rain = 0
KLA1 172226Z 17007KT 28/11 A2988 RMK A01 T02780113  RH  036%=      5-min Rain = 0
KLA1 172227Z 18006KT 28/11 A2988 RMK A01 T02760114  RH  036%=      5-min Rain = 0
KLA1 172228Z 18007KT 28/11 A2988 RMK A01 T02760114  RH  037%=      5-min Rain = 0
KLA1 172229Z 19006KT 28/11 A2988 RMK A01 T02750114  RH  037%=      5-min Rain = 0
KLA1 172230Z 21006KT 27/11 A2988 RMK A01 T02740114  RH  037%=      5-min Rain = 0
KLA1 172231Z 18006KT 27/11 A2988 RMK A01 T02740114  RH  037%=      5-min Rain = 0
KLA1 172232Z 15007KT 27/11 A2988 RMK A01 T02740113  RH  037%=      5-min Rain = 0
KLA1 172233Z 15008KT 28/11 A2988 RMK A01 T02750112  RH  036%=      5-min Rain = 0
KLA1 172234Z 17009KT 28/11 A2988 RMK A01 T02760112  RH  036%=      5-min Rain = 0
KLA1 172235Z 15007KT 28/11 A2988 RMK A01 T02750112  RH  036%=      5-min Rain = 0
KLA1 172236Z 14005KT 28/11 A2988 RMK A01 T02750112  RH  036%=      5-min Rain = 0
KLA1 172237Z 14005KT 28/11 A2988 RMK A01 T02750112  RH  036%=      5-min Rain = 0
KLA1 172238Z 15005G11KT 27/11 A2988 RMK A01 T02740111  RH  036%=      5-min Rain = 0
KLA1 172239Z 14010KT 27/11 A2988 RMK A01 T02730111  RH  036%=      5-min Rain = 0
KLA1 172240Z 14009KT 27/11 A2988 RMK A01 T02740111  RH  036%=      5-min Rain = 0
KLA1 172241Z 13007KT 27/11 A2988 RMK A01 T02730112  RH  037%=      5-min Rain = 0
KLA1 172242Z 14009KT 27/11 A2988 RMK A01 T02730111  RH  036%=      5-min Rain = 0
KLA1 172243Z 15009KT 27/11 A2987 RMK A01 T02740112  RH  036%=      5-min Rain = 0
KLA1 172244Z 14008KT 28/11 A2987 RMK A01 T02750112  RH  036%=      5-min Rain = 0
KLA1 172245Z 14008KT 28/11 A2987 RMK A01 T02750112  RH  036%=      5-min Rain = 0
KLA1 172246Z 15008KT 28/11 A2987 RMK A01 T02750112  RH  036%=      5-min Rain = 0
KLA1 172247Z 13006KT 27/11 A2987 RMK A01 T02730111  RH  036%=      5-min Rain = 0
KLA1 172248Z 13008KT 27/11 A2987 RMK A01 T02730111  RH  037%=      5-min Rain = 0
KLA1 172249Z 13009KT 27/11 A2987 RMK A01 T02730112  RH  037%=      5-min Rain = 0
KLA1 172250Z 13008KT 27/11 A2987 RMK A01 T02730112  RH  036%=      5-min Rain = 0
KLA1 172251Z 14009KT 27/11 A2987 RMK A01 T02740111  RH  036%=      5-min Rain = 0
KLA1 172252Z 13009KT 27/11 A2987 RMK A01 T02730112  RH  036%=      5-min Rain = 0
KLA1 172253Z 13009KT 27/11 A2988 RMK A01 T02730111  RH  036%=      5-min Rain = 0
KLA1 172254Z 14009KT 27/11 A2987 RMK A01 T02720111  RH  037%=      5-min Rain = 0
KLA1 172255Z 14008KT 27/11 A2987 RMK A01 T02720112  RH  037%=      5-min Rain = 0
KLA1 172256Z 14006KT 27/11 A2987 RMK A01 T02710111  RH  037%=      5-min Rain = 0
KLA1 172257Z 13007KT 27/11 A2987 RMK A01 T02710111  RH  037%=      5-min Rain = 0
KLA1 172258Z 13007KT 27/11 A2987 RMK A01 T02710112  RH  037%=      5-min Rain = 0
KLA1 172259Z 13008KT 27/11 A2987 RMK A01 T02710111  RH  037%=      5-min Rain = 0
KLA1 172300Z 13008KT 27/11 A2987 RMK A01 T02710112  RH  037%=      5-min Rain = 0
KLA1 172301Z 15006KT 27/11 A2987 RMK A01 T02710112  RH  037%=      5-min Rain = 0
KLA1 172302Z 14008KT 27/11 A2987 RMK A01 T02710113  RH  037%=      5-min Rain = 0
KLA1 172303Z 13008KT 27/11 A2987 RMK A01 T02710113  RH  037%=      5-min Rain = 0
KLA1 172304Z 14009KT 27/11 A2987 RMK A01 T02710112  RH  037%=      5-min Rain = 0
KLA1 172305Z 14006KT 27/11 A2987 RMK A01 T02710113  RH  037%=      5-min Rain = 0
KLA1 172306Z 13006KT 27/11 A2987 RMK A01 T02710113  RH  037%=      5-min Rain = 0
KLA1 172307Z 14005KT 27/11 A2987 RMK A01 T02720113  RH  037%=      5-min Rain = 0
KLA1 172308Z 15007KT 27/11 A2987 RMK A01 T02730113  RH  037%=      5-min Rain = 0
KLA1 172309Z 14008KT 27/11 A2987 RMK A01 T02730113  RH  037%=      5-min Rain = 0
KLA1 172310Z 15008KT 27/11 A2987 RMK A01 T02720113  RH  037%=      5-min Rain = 0
KLA1 172311Z 14008KT 27/11 A2987 RMK A01 T02720113  RH  037%=      5-min Rain = 0
KLA1 172312Z 14009KT 27/11 A2987 RMK A01 T02710113  RH  037%=      5-min Rain = 0
KLA1 172313Z 14008KT 27/11 A2987 RMK A01 T02710112  RH  037%=      5-min Rain = 0
KLA1 172314Z 14007KT 27/11 A2987 RMK A01 T02700112  RH  037%=      5-min Rain = 0
KLA1 172315Z 14008KT 27/11 A2987 RMK A01 T02690112  RH  037%=      5-min Rain = 0
KLA1 172316Z 16007KT 27/11 A2987 RMK A01 T02690112  RH  038%=      5-min Rain = 0
KLA1 172317Z 15007KT 27/11 A2987 RMK A01 T02680112  RH  038%=      5-min Rain = 0
KLA1 172318Z 13005KT 27/11 A2987 RMK A01 T02670113  RH  038%=      5-min Rain = 0
KLA1 172319Z 14006KT 27/11 A2987 RMK A01 T02670114  RH  038%=      5-min Rain = 0
KLA1 172320Z 14009KT 27/11 A2987 RMK A01 T02680114  RH  038%=      5-min Rain = 0
KLA1 172321Z 14009KT 27/11 A2987 RMK A01 T02690113  RH  038%=      5-min Rain = 0
KLA1 172322Z 14007KT 27/11 A2987 RMK A01 T02670113  RH  038%=      5-min Rain = 0
KLA1 172323Z 14007KT 27/11 A2987 RMK A01 T02670113  RH  038%=      5-min Rain = 0
KLA1 172324Z 15010KT 27/11 A2987 RMK A01 T02670113  RH  038%=      5-min Rain = 0
KLA1 172325Z 14008KT 27/11 A2987 RMK A01 T02660113  RH  038%=      5-min Rain = 0
KLA1 172326Z 14007KT 27/11 A2987 RMK A01 T02660114  RH  039%=      5-min Rain = 0
KLA1 172327Z 14008KT 27/11 A2987 RMK A01 T02650114  RH  039%=      5-min Rain = 0
KLA1 172328Z 13007KT 27/11 A2987 RMK A01 T02650114  RH  039%=      5-min Rain = 0
KLA1 172329Z 13007KT 27/12 A2987 RMK A01 T02650115  RH  039%=      5-min Rain = 0
KLA1 172330Z 13008KT 27/12 A2987 RMK A01 T02650115  RH  039%=      5-min Rain = 0
KLA1 172331Z 13007KT 26/12 A2987 RMK A01 T02640115  RH  039%=      5-min Rain = 0
KLA1 172332Z 15007KT 26/12 A2987 RMK A01 T02640115  RH  039%=      5-min Rain = 0
KLA1 172333Z 14009KT 26/11 A2987 RMK A01 T02640114  RH  039%=      5-min Rain = 0
KLA1 172334Z 14006KT 26/11 A2987 RMK A01 T02630114  RH  039%=      5-min Rain = 0
KLA1 172335Z 14008KT 26/12 A2987 RMK A01 T02630115  RH  040%=      5-min Rain = 0
KLA1 172336Z 13008KT 26/12 A2987 RMK A01 T02630115  RH  040%=      5-min Rain = 0
KLA1 172337Z 14008KT 26/11 A2987 RMK A01 T02630114  RH  040%=      5-min Rain = 0
KLA1 172338Z 14007KT 26/11 A2987 RMK A01 T02620114  RH  040%=      5-min Rain = 0
KLA1 172339Z 14006KT 26/11 A2987 RMK A01 T02620114  RH  040%=      5-min Rain = 0
KLA1 172340Z 15006KT 26/11 A2987 RMK A01 T02610114  RH  040%=      5-min Rain = 0
KLA1 172341Z 15008KT 26/11 A2987 RMK A01 T02610114  RH  040%=      5-min Rain = 0
KLA1 172342Z 15008KT 26/11 A2987 RMK A01 T02610114  RH  040%=      5-min Rain = 0
KLA1 172343Z 15006KT 26/11 A2987 RMK A01 T02600114  RH  040%=      5-min Rain = 0
KLA1 172344Z 15007KT 26/11 A2987 RMK A01 T02600114  RH  040%=      5-min Rain = 0
KLA1 172345Z 14006KT 26/11 A2987 RMK A01 T02590113  RH  040%=      5-min Rain = 0
KLA1 172346Z 14007KT 26/11 A2987 RMK A01 T02590113  RH  040%=      5-min Rain = 0
KLA1 172347Z 14008KT 26/11 A2987 RMK A01 T02590113  RH  040%=      5-min Rain = 0
KLA1 172348Z 14007KT 26/11 A2987 RMK A01 T02580113  RH  040%=      5-min Rain = 0
KLA1 172349Z 14007KT 26/11 A2987 RMK A01 T02580113  RH  040%=      5-min Rain = 0
KLA1 172350Z 14007KT 26/11 A2987 RMK A01 T02570113  RH  041%=      5-min Rain = 0
KLA1 172351Z 14007KT 26/11 A2987 RMK A01 T02570113  RH  041%=      5-min Rain = 0
KLA1 172352Z 15007KT 26/11 A2987 RMK A01 T02560113  RH  041%=      5-min Rain = 0
KLA1 172353Z 15007KT 26/11 A2987 RMK A01 T02560113  RH  041%=      5-min Rain = 0
KLA1 172354Z 14006KT 26/11 A2987 RMK A01 T02550113  RH  041%=      5-min Rain = 0
KLA1 172355Z 15007KT 26/11 A2987 RMK A01 T02550114  RH  041%=      5-min Rain = 0
KLA1 172356Z 15006KT 25/11 A2987 RMK A01 T02540114  RH  041%=      5-min Rain = 0
KLA1 172357Z 15006KT 25/11 A2987 RMK A01 T02540113  RH  041%=      5-min Rain = 0
KLA1 172358Z 15006KT 25/11 A2987 RMK A01 T02530114  RH  042%=      5-min Rain = 0
KLA1 172359Z 15007KT 25/11 A2987 RMK A01 T02520113  RH  042%=      5-min Rain = 0
KLA1 180000Z 15007KT 25/11 A2987 RMK A01 T02520113  RH  042%=      5-min Rain = 0
KLA1 180001Z 15005KT 25/11 A2987 RMK A01 T02510113  RH  042%=      5-min Rain = 0
KLA1 180002Z 15005KT 25/11 A2987 RMK A01 T02510113  RH  042%=      5-min Rain = 0
KLA1 180003Z 15006KT 25/11 A2987 RMK A01 T02500113  RH  042%=      5-min Rain = 0
KLA1 180004Z 14005KT 25/11 A2987 RMK A01 T02490113  RH  042%=      5-min Rain = 0
KLA1 180005Z 14005KT 25/11 A2987 RMK A01 T02490114  RH  043%=      5-min Rain = 0
KLA1 180006Z 14005KT 25/11 A2987 RMK A01 T02480114  RH  043%=      5-min Rain = 0
KLA1 180007Z 14005KT 25/11 A2987 RMK A01 T02470113  RH  043%=      5-min Rain = 0
KLA1 180008Z 14005KT 25/11 A2987 RMK A01 T02460114  RH  043%=      5-min Rain = 0
KLA1 180009Z 13005KT 25/11 A2987 RMK A01 T02450114  RH  044%=      5-min Rain = 0
KLA1 180010Z 14006KT 25/11 A2987 RMK A01 T02450114  RH  044%=      5-min Rain = 0
KLA1 180011Z 14005KT 24/11 A2987 RMK A01 T02440114  RH  044%=      5-min Rain = 0
KLA1 180012Z 14005KT 24/11 A2987 RMK A01 T02430114  RH  044%=      5-min Rain = 0
KLA1 180013Z 14006KT 24/11 A2987 RMK A01 T02420114  RH  044%=      5-min Rain = 0
KLA1 180014Z 14006KT 24/11 A2987 RMK A01 T02420114  RH  045%=      5-min Rain = 0
KLA1 180015Z 14005KT 24/11 A2987 RMK A01 T02410114  RH  045%=      5-min Rain = 0
KLA1 180016Z 14005KT 24/11 A2987 RMK A01 T02410114  RH  045%=      5-min Rain = 0
KLA1 180017Z 14005KT 24/11 A2987 RMK A01 T02400114  RH  045%=      5-min Rain = 0
KLA1 180018Z 14006KT 24/11 A2987 RMK A01 T02390114  RH  045%=      5-min Rain = 0
KLA1 180019Z 13005KT 24/11 A2987 RMK A01 T02390114  RH  045%=      5-min Rain = 0
KLA1 180020Z 13005KT 24/11 A2987 RMK A01 T02380114  RH  046%=      5-min Rain = 0
KLA1 180021Z 12005KT 24/11 A2987 RMK A01 T02370114  RH  046%=      5-min Rain = 0
KLA1 180022Z 13004KT 24/11 A2987 RMK A01 T02350113  RH  046%=      5-min Rain = 0
KLA1 180023Z 12004KT 24/11 A2987 RMK A01 T02350114  RH  047%=      5-min Rain = 0
KLA1 180024Z 12004KT 23/11 A2987 RMK A01 T02340114  RH  047%=      5-min Rain = 0
KLA1 180025Z 12004KT 23/11 A2987 RMK A01 T02330114  RH  047%=      5-min Rain = 0
KLA1 180026Z 12005KT 23/11 A2987 RMK A01 T02330114  RH  047%=      5-min Rain = 0
KLA1 180027Z 13005KT 23/11 A2987 RMK A01 T02320114  RH  047%=      5-min Rain = 0
KLA1 180028Z 13005KT 23/12 A2987 RMK A01 T02320115  RH  048%=      5-min Rain = 0
KLA1 180029Z 13006KT 23/12 A2987 RMK A01 T02320115  RH  048%=      5-min Rain = 0
KLA1 180030Z 13005KT 23/12 A2987 RMK A01 T02310115  RH  048%=      5-min Rain = 0
KLA1 180031Z 13005KT 23/12 A2987 RMK A01 T02310115  RH  048%=      5-min Rain = 0
KLA1 180032Z 13006KT 23/12 A2987 RMK A01 T02300115  RH  048%=      5-min Rain = 0
KLA1 180033Z 13005KT 23/12 A2987 RMK A01 T02300115  RH  048%=      5-min Rain = 0
KLA1 180034Z 13006KT 23/12 A2987 RMK A01 T02300115  RH  048%=      5-min Rain = 0
KLA1 180035Z 14006KT 23/12 A2987 RMK A01 T02290115  RH  049%=      5-min Rain = 0
KLA1 180036Z 13006KT 23/12 A2987 RMK A01 T02290115  RH  049%=      5-min Rain = 0
KLA1 180037Z 14009KT 23/12 A2987 RMK A01 T02290116  RH  049%=      5-min Rain = 0
KLA1 180038Z 14007KT 23/12 A2987 RMK A01 T02290116  RH  049%=      5-min Rain = 0
KLA1 180039Z 14008KT 23/12 A2987 RMK A01 T02290116  RH  049%=      5-min Rain = 0
KLA1 180040Z 15009KT 23/12 A2987 RMK A01 T02300118  RH  049%=      5-min Rain = 0
KLA1 180041Z 14010KT 23/12 A2987 RMK A01 T02320118  RH  049%=      5-min Rain = 0
KLA1 180042Z 14008KT 23/12 A2987 RMK A01 T02320118  RH  048%=      5-min Rain = 0
KLA1 180043Z 14009KT 23/12 A2987 RMK A01 T02330118  RH  048%=      5-min Rain = 0
KLA1 180044Z 14008KT 23/12 A2987 RMK A01 T02340118  RH  048%=      5-min Rain = 0
KLA1 180045Z 14007KT 23/12 A2987 RMK A01 T02340117  RH  048%=      5-min Rain = 0
KLA1 180046Z 13006KT 23/12 A2987 RMK A01 T02330117  RH  048%=      5-min Rain = 0
KLA1 180047Z 13006KT 23/12 A2987 RMK A01 T02320117  RH  048%=      5-min Rain = 0
KLA1 180048Z 13006KT 23/12 A2987 RMK A01 T02310117  RH  049%=      5-min Rain = 0
KLA1 180049Z 12006KT 23/12 A2987 RMK A01 T02300117  RH  049%=      5-min Rain = 0
KLA1 180050Z 12006KT 23/12 A2987 RMK A01 T02290118  RH  049%=      5-min Rain = 0
KLA1 180051Z 12007KT 23/12 A2987 RMK A01 T02290117  RH  049%=      5-min Rain = 0
KLA1 180052Z 12007KT 23/12 A2987 RMK A01 T02280117  RH  050%=      5-min Rain = 0
KLA1 180053Z 13007KT 23/12 A2987 RMK A01 T02270118  RH  050%=      5-min Rain = 0
KLA1 180054Z 12007KT 23/12 A2987 RMK A01 T02270117  RH  050%=      5-min Rain = 0
KLA1 180055Z 13006KT 23/12 A2987 RMK A01 T02260118  RH  050%=      5-min Rain = 0
KLA1 180056Z 13007KT 23/12 A2987 RMK A01 T02260118  RH  050%=      5-min Rain = 0
KLA1 180057Z 12007KT 23/12 A2987 RMK A01 T02250117  RH  051%=      5-min Rain = 0
KLA1 180058Z 12007KT 22/12 A2987 RMK A01 T02240118  RH  051%=      5-min Rain = 0
KLA1 180059Z 13006KT 22/12 A2987 RMK A01 T02230117  RH  051%=      5-min Rain = 0
KLA1 180100Z 12006KT 22/12 A2988 RMK A01 T02230118  RH  051%=      5-min Rain = 0
KLA1 180101Z 12005KT 22/12 A2988 RMK A01 T02220117  RH  051%=      5-min Rain = 0
KLA1 180102Z 12006KT 22/12 A2988 RMK A01 T02210117  RH  052%=      5-min Rain = 0
KLA1 180103Z 13005KT 22/12 A2988 RMK A01 T02200117  RH  052%=      5-min Rain = 0
KLA1 180104Z 13005KT 22/12 A2988 RMK A01 T02200117  RH  052%=      5-min Rain = 0
KLA1 180105Z 13005KT 22/12 A2988 RMK A01 T02190117  RH  052%=      5-min Rain = 0
KLA1 180106Z 13005KT 22/12 A2988 RMK A01 T02180117  RH  052%=      5-min Rain = 0
KLA1 180107Z 13006KT 22/12 A2988 RMK A01 T02180117  RH  053%=      5-min Rain = 0
KLA1 180108Z 14006KT 22/12 A2988 RMK A01 T02170116  RH  053%=      5-min Rain = 0
KLA1 180109Z 14006KT 22/12 A2988 RMK A01 T02170117  RH  053%=      5-min Rain = 0
KLA1 180110Z 14006KT 22/12 A2988 RMK A01 T02170117  RH  053%=      5-min Rain = 0
KLA1 180111Z 14006KT 22/12 A2988 RMK A01 T02170117  RH  053%=      5-min Rain = 0
KLA1 180112Z 14006KT 22/12 A2988 RMK A01 T02170116  RH  053%=      5-min Rain = 0
KLA1 180113Z 15006KT 22/12 A2988 RMK A01 T02170116  RH  053%=      5-min Rain = 0
KLA1 180114Z 14006KT 22/12 A2988 RMK A01 T02170117  RH  053%=      5-min Rain = 0
KLA1 180115Z 14007KT 22/12 A2988 RMK A01 T02170116  RH  053%=      5-min Rain = 0
KLA1 180116Z 14008KT 22/12 A2988 RMK A01 T02170116  RH  053%=      5-min Rain = 0
KLA1 180117Z 14007KT 22/12 A2988 RMK A01 T02170116  RH  053%=      5-min Rain = 0
KLA1 180118Z 14007KT 22/12 A2988 RMK A01 T02170116  RH  053%=      5-min Rain = 0
KLA1 180119Z 14007KT 22/12 A2988 RMK A01 T02170116  RH  053%=      5-min Rain = 0
KLA1 180120Z 13007KT 22/12 A2988 RMK A01 T02170116  RH  053%=      5-min Rain = 0
KLA1 180121Z 13008KT 22/12 A2988 RMK A01 T02170116  RH  053%=      5-min Rain = 0
KLA1 180122Z 14007KT 22/12 A2988 RMK A01 T02170116  RH  053%=      5-min Rain = 0
KLA1 180123Z 13007KT 22/12 A2989 RMK A01 T02170116  RH  053%=      5-min Rain = 0
KLA1 180124Z 14009KT 22/12 A2989 RMK A01 T02170116  RH  053%=      5-min Rain = 0
KLA1 180125Z 14007KT 22/12 A2989 RMK A01 T02170117  RH  053%=      5-min Rain = 0
KLA1 180126Z 15007KT 22/12 A2989 RMK A01 T02180117  RH  053%=      5-min Rain = 0
KLA1 180127Z 15006KT 22/12 A2989 RMK A01 T02180117  RH  053%=      5-min Rain = 0
KLA1 180128Z 15007KT 22/12 A2989 RMK A01 T02180117  RH  053%=      5-min Rain = 0
KLA1 180129Z 16007KT 22/12 A2989 RMK A01 T02180117  RH  053%=      5-min Rain = 0
KLA1 180130Z 15008KT 22/12 A2989 RMK A01 T02180118  RH  053%=      5-min Rain = 0
KLA1 180131Z 16006KT 22/12 A2989 RMK A01 T02180118  RH  053%=      5-min Rain = 0
KLA1 180132Z 15007KT 22/12 A2989 RMK A01 T02180118  RH  053%=      5-min Rain = 0
KLA1 180133Z 16010KT 22/12 A2989 RMK A01 T02180118  RH  053%=      5-min Rain = 0
KLA1 180134Z 14007KT 22/12 A2989 RMK A01 T02190118  RH  053%=      5-min Rain = 0
KLA1 180135Z 15009KT 22/12 A2989 RMK A01 T02200118  RH  052%=      5-min Rain = 0
KLA1 180136Z 14009KT 22/12 A2989 RMK A01 T02200119  RH  053%=      5-min Rain = 0
KLA1 180137Z 14006KT 22/12 A2989 RMK A01 T02200119  RH  053%=      5-min Rain = 0
KLA1 180138Z 14008KT 22/12 A2989 RMK A01 T02190118  RH  053%=      5-min Rain = 0
KLA1 180139Z 14008KT 22/12 A2989 RMK A01 T02190119  RH  053%=      5-min Rain = 0
KLA1 180140Z 14010KT 22/12 A2989 RMK A01 T02180119  RH  053%=      5-min Rain = 0
KLA1 180141Z 14009KT 22/12 A2989 RMK A01 T02180120  RH  053%=      5-min Rain = 0
KLA1 180142Z 14007KT 22/12 A2989 RMK A01 T02190120  RH  053%=      5-min Rain = 0
KLA1 180143Z 14010KT 22/12 A2989 RMK A01 T02190120  RH  053%=      5-min Rain = 0
KLA1 180144Z 14009KT 22/12 A2989 RMK A01 T02190120  RH  053%=      5-min Rain = 0
KLA1 180145Z 13010KT 22/12 A2989 RMK A01 T02190120  RH  053%=      5-min Rain = 0
KLA1 180146Z 14010KT 22/12 A2989 RMK A01 T02190120  RH  053%=      5-min Rain = 0
KLA1 180147Z 13009KT 22/12 A2989 RMK A01 T02180120  RH  054%=      5-min Rain = 0
KLA1 180148Z 14007KT 22/12 A2989 RMK A01 T02180120  RH  054%=      5-min Rain = 0
KLA1 180149Z 13009KT 22/12 A2989 RMK A01 T02180121  RH  054%=      5-min Rain = 0
KLA1 180150Z 13009KT 22/12 A2989 RMK A01 T02170121  RH  054%=      5-min Rain = 0
KLA1 180151Z 14011KT 22/12 A2989 RMK A01 T02170121  RH  054%=      5-min Rain = 0
KLA1 180152Z 14010G16KT 22/12 A2989 RMK A01 T02170121  RH  054%=      5-min Rain = 0
KLA1 180153Z 14010G15KT 22/12 A299 RMK A01 T02170121  RH  054%=      5-min Rain = 0
KLA1 180154Z 13009KT 22/12 A299 RMK A01 T02170121  RH  054%=      5-min Rain = 0
KLA1 180155Z 13008KT 22/12 A299 RMK A01 T02160121  RH  055%=      5-min Rain = 0
KLA1 180156Z 14007KT 22/12 A299 RMK A01 T02150120  RH  055%=      5-min Rain = 0
KLA1 180157Z 14010KT 21/12 A299 RMK A01 T02140121  RH  055%=      5-min Rain = 0
KLA1 180158Z 14010KT 21/12 A299 RMK A01 T02140121  RH  055%=      5-min Rain = 0
KLA1 180159Z 14011KT 22/12 A299 RMK A01 T02150122  RH  055%=      5-min Rain = 0
KLA1 180200Z 16011KT 22/12 A299 RMK A01 T02150122  RH  055%=      5-min Rain = 0
KLA1 180201Z 15008KT 22/12 A299 RMK A01 T02150122  RH  055%=      5-min Rain = 0
KLA1 180202Z 16007KT 22/12 A299 RMK A01 T02150122  RH  055%=      5-min Rain = 0
KLA1 180203Z 15007KT 22/12 A2991 RMK A01 T02150122  RH  055%=      5-min Rain = 0
KLA1 180204Z 16009KT 21/12 A2991 RMK A01 T02140122  RH  055%=      5-min Rain = 0
KLA1 180205Z 15010KT 21/12 A2991 RMK A01 T02140122  RH  056%=      5-min Rain = 0
KLA1 180206Z 16010KT 21/12 A2991 RMK A01 T02140122  RH  055%=      5-min Rain = 0
KLA1 180207Z 15010KT 21/12 A2991 RMK A01 T02140121  RH  055%=      5-min Rain = 0
KLA1 180208Z 15007KT 22/12 A2991 RMK A01 T02150121  RH  055%=      5-min Rain = 0
KLA1 180209Z 15009KT 22/12 A2991 RMK A01 T02150122  RH  055%=      5-min Rain = 0
KLA1 180210Z 16011KT 21/12 A2991 RMK A01 T02140121  RH  055%=      5-min Rain = 0
KLA1 180211Z 15010KT 21/12 A2991 RMK A01 T02140121  RH  055%=      5-min Rain = 0
KLA1 180212Z 15011KT 21/12 A2991 RMK A01 T02140120  RH  055%=      5-min Rain = 0
KLA1 180213Z 15009KT 21/12 A2991 RMK A01 T02140121  RH  055%=      5-min Rain = 0
KLA1 180214Z 14011KT 21/12 A2991 RMK A01 T02140121  RH  055%=      5-min Rain = 0
KLA1 180215Z 14010G15KT 21/12 A2991 RMK A01 T02140122  RH  055%=      5-min Rain = 0
KLA1 180216Z 14011KT 21/12 A2991 RMK A01 T02140121  RH  055%=      5-min Rain = 0
KLA1 180217Z 15009KT 21/12 A2991 RMK A01 T02140121  RH  055%=      5-min Rain = 0
KLA1 180218Z 15009KT 21/12 A2991 RMK A01 T02130121  RH  056%=      5-min Rain = 0
KLA1 180219Z 15010KT 21/12 A2991 RMK A01 T02130121  RH  056%=      5-min Rain = 0
KLA1 180220Z 15009KT 21/12 A2991 RMK A01 T02120121  RH  056%=      5-min Rain = 0
KLA1 180221Z 15010KT 21/12 A2991 RMK A01 T02120121  RH  056%=      5-min Rain = 0
KLA1 180222Z 14006KT 21/12 A2991 RMK A01 T02130122  RH  056%=      5-min Rain = 0
KLA1 180223Z 14004KT 21/12 A2991 RMK A01 T02120121  RH  056%=      5-min Rain = 0
KLA1 180224Z 15008KT 21/12 A2991 RMK A01 T02110121  RH  056%=      5-min Rain = 0
KLA1 180225Z 14008KT 21/12 A2991 RMK A01 T02100121  RH  057%=      5-min Rain = 0
KLA1 180226Z 14008KT 21/12 A2991 RMK A01 T02100121  RH  057%=      5-min Rain = 0
KLA1 180227Z 15007KT 21/12 A2991 RMK A01 T02100121  RH  057%=      5-min Rain = 0
KLA1 180228Z 16009KT 21/12 A2991 RMK A01 T02100121  RH  057%=      5-min Rain = 0
KLA1 180229Z 15009KT 21/12 A2991 RMK A01 T02100121  RH  056%=      5-min Rain = 0
KLA1 180230Z 14008KT 21/12 A2991 RMK A01 T02110121  RH  057%=      5-min Rain = 0
KLA1 180231Z 14007KT 21/12 A2991 RMK A01 T02100121  RH  057%=      5-min Rain = 0
KLA1 180232Z 15010KT 21/12 A2991 RMK A01 T02100121  RH  057%=      5-min Rain = 0
KLA1 180233Z 14011KT 21/12 A2991 RMK A01 T02100121  RH  057%=      5-min Rain = 0
KLA1 180234Z 14008KT 21/12 A2991 RMK A01 T02100120  RH  056%=      5-min Rain = 0
KLA1 180235Z 13010KT 21/12 A2991 RMK A01 T02100120  RH  056%=      5-min Rain = 0
KLA1 180236Z 14010KT 21/12 A2991 RMK A01 T02100120  RH  056%=      5-min Rain = 0
KLA1 180237Z 13007KT 21/12 A2991 RMK A01 T02100120  RH  056%=      5-min Rain = 0
KLA1 180238Z 13006KT 21/12 A2991 RMK A01 T02100120  RH  056%=      5-min Rain = 0
KLA1 180239Z 13006KT 21/12 A2991 RMK A01 T02080120  RH  057%=      5-min Rain = 0
KLA1 180240Z 15006KT 21/12 A2991 RMK A01 T02070120  RH  057%=      5-min Rain = 0
KLA1 180241Z 12006G11KT 21/12 A2991 RMK A01 T02070120  RH  057%=      5-min Rain = 0
KLA1 180242Z 11005KT 21/12 A2991 RMK A01 T02060120  RH  058%=      5-min Rain = 0
KLA1 180243Z 11005KT 20/12 A2991 RMK A01 T02040120  RH  058%=      5-min Rain = 0
KLA1 180244Z 12005KT 20/12 A2991 RMK A01 T02020120  RH  059%=      5-min Rain = 0
KLA1 180245Z 11008KT 20/12 A2991 RMK A01 T02010120  RH  059%=      5-min Rain = 0
KLA1 180246Z 13006KT 20/12 A2991 RMK A01 T02010120  RH  059%=      5-min Rain = 0
KLA1 180247Z 14007KT 20/12 A2991 RMK A01 T02010119  RH  059%=      5-min Rain = 0
KLA1 180248Z 12005KT 20/12 A2991 RMK A01 T02010119  RH  059%=      5-min Rain = 0
KLA1 180249Z 12006KT 20/12 A2991 RMK A01 T02010119  RH  059%=      5-min Rain = 0
KLA1 180250Z 11005KT 20/12 A2991 RMK A01 T02010120  RH  059%=      5-min Rain = 0
KLA1 180251Z 12005KT 20/12 A2991 RMK A01 T02010120  RH  060%=      5-min Rain = 0
KLA1 180252Z 12004KT 20/12 A2991 RMK A01 T02000119  RH  060%=      5-min Rain = 0
KLA1 180253Z 12006KT 20/12 A2991 RMK A01 T02000119  RH  060%=      5-min Rain = 0
KLA1 180254Z 12005KT 20/12 A2991 RMK A01 T02000120  RH  060%=      5-min Rain = 0
KLA1 180255Z 11005KT 20/12 A2991 RMK A01 T01990119  RH  060%=      5-min Rain = 0
KLA1 180256Z 12005KT 20/12 A2991 RMK A01 T01990119  RH  060%=      5-min Rain = 0
KLA1 180257Z 12004KT 20/12 A2991 RMK A01 T01980119  RH  060%=      5-min Rain = 0
KLA1 180258Z 12005KT 20/12 A2991 RMK A01 T01980119  RH  060%=      5-min Rain = 0
KLA1 180259Z 12005KT 20/12 A2991 RMK A01 T01980119  RH  060%=      5-min Rain = 0
KLA1 180300Z 12005KT 20/12 A2992 RMK A01 T01970119  RH  060%=      5-min Rain = 0
KLA1 180301Z 12005KT 20/12 A2992 RMK A01 T01980120  RH  061%=      5-min Rain = 0
KLA1 180302Z 12004KT 20/12 A2992 RMK A01 T01970119  RH  061%=      5-min Rain = 0
KLA1 180303Z 12005KT 20/12 A2992 RMK A01 T01960118  RH  061%=      5-min Rain = 0
KLA1 180304Z 11005KT 20/12 A2992 RMK A01 T01960118  RH  061%=      5-min Rain = 0
KLA1 180305Z 12005KT 20/12 A2992 RMK A01 T01960119  RH  061%=      5-min Rain = 0
KLA1 180306Z 13006KT 20/12 A2992 RMK A01 T01960119  RH  061%=      5-min Rain = 0
KLA1 180307Z 12007KT 20/12 A2992 RMK A01 T01960118  RH  061%=      5-min Rain = 0
KLA1 180308Z 12007KT 20/12 A2992 RMK A01 T01960118  RH  061%=      5-min Rain = 0
KLA1 180309Z 12007KT 20/12 A2992 RMK A01 T01960118  RH  061%=      5-min Rain = 0
KLA1 180310Z 12007KT 20/12 A2992 RMK A01 T01960118  RH  060%=      5-min Rain = 0
KLA1 180311Z 13007KT 20/12 A2992 RMK A01 T01970118  RH  060%=      5-min Rain = 0
KLA1 180312Z 13006KT 20/12 A2992 RMK A01 T01970118  RH  060%=      5-min Rain = 0
KLA1 180313Z 12006KT 20/12 A2992 RMK A01 T01960117  RH  060%=      5-min Rain = 0
KLA1 180314Z 13005KT 20/12 A2992 RMK A01 T01960117  RH  060%=      5-min Rain = 0
KLA1 180315Z 12005KT 20/12 A2992 RMK A01 T01950117  RH  061%=      5-min Rain = 0
KLA1 180316Z 12007KT 20/12 A2992 RMK A01 T01950117  RH  061%=      5-min Rain = 0
KLA1 180317Z 12005KT 20/12 A2992 RMK A01 T01950117  RH  061%=      5-min Rain = 0
KLA1 180318Z 12007KT 20/12 A2992 RMK A01 T01950117  RH  061%=      5-min Rain = 0
KLA1 180319Z 12007KT 19/12 A2992 RMK A01 T01940116  RH  061%=      5-min Rain = 0
KLA1 180320Z 12007KT 20/12 A2992 RMK A01 T01950117  RH  061%=      5-min Rain = 0
KLA1 180321Z 12008KT 19/12 A2992 RMK A01 T01940116  RH  061%=      5-min Rain = 0
KLA1 180322Z 12007KT 19/12 A2992 RMK A01 T01940116  RH  060%=      5-min Rain = 0
KLA1 180323Z 12007KT 19/12 A2992 RMK A01 T01940116  RH  060%=      5-min Rain = 0
KLA1 180324Z 12006KT 19/12 A2992 RMK A01 T01940116  RH  060%=      5-min Rain = 0
KLA1 180325Z 12007KT 19/12 A2992 RMK A01 T01940116  RH  061%=      5-min Rain = 0
KLA1 180326Z 12007KT 19/12 A2992 RMK A01 T01940116  RH  061%=      5-min Rain = 0
KLA1 180327Z 12007KT 19/12 A2992 RMK A01 T01930115  RH  061%=      5-min Rain = 0
KLA1 180328Z 12007KT 19/12 A2992 RMK A01 T01930115  RH  060%=      5-min Rain = 0
KLA1 180329Z 13006KT 19/12 A2992 RMK A01 T01940115  RH  060%=      5-min Rain = 0
KLA1 180330Z 13007KT 19/12 A2992 RMK A01 T01930115  RH  060%=      5-min Rain = 0
KLA1 180331Z 13008KT 19/12 A2992 RMK A01 T01930115  RH  060%=      5-min Rain = 0
KLA1 180332Z 13006KT 19/12 A2992 RMK A01 T01930115  RH  060%=      5-min Rain = 0
KLA1 180333Z 13007KT 19/12 A2992 RMK A01 T01930115  RH  060%=      5-min Rain = 0
KLA1 180334Z 13007KT 19/11 A2992 RMK A01 T01920114  RH  061%=      5-min Rain = 0
KLA1 180335Z 13006KT 19/11 A2992 RMK A01 T01920114  RH  061%=      5-min Rain = 0
KLA1 180336Z 13007KT 19/11 A2992 RMK A01 T01920114  RH  061%=      5-min Rain = 0
KLA1 180337Z 12006KT 19/11 A2992 RMK A01 T01920114  RH  061%=      5-min Rain = 0
KLA1 180338Z 12007KT 19/11 A2992 RMK A01 T01920114  RH  061%=      5-min Rain = 0
KLA1 180339Z 12007KT 19/11 A2992 RMK A01 T01910114  RH  061%=      5-min Rain = 0
KLA1 180340Z 12008KT 19/11 A2992 RMK A01 T01910114  RH  061%=      5-min Rain = 0
KLA1 180341Z 12007KT 19/11 A2992 RMK A01 T01910113  RH  061%=      5-min Rain = 0
KLA1 180342Z 12007KT 19/11 A2992 RMK A01 T01920114  RH  061%=      5-min Rain = 0
KLA1 180343Z 11007KT 19/11 A2992 RMK A01 T01910113  RH  060%=      5-min Rain = 0
KLA1 180344Z 11007KT 19/11 A2992 RMK A01 T01920114  RH  060%=      5-min Rain = 0
KLA1 180345Z 12008KT 19/11 A2992 RMK A01 T01910113  RH  060%=      5-min Rain = 0
KLA1 180346Z 11006KT 19/11 A2992 RMK A01 T01920113  RH  060%=      5-min Rain = 0
KLA1 180347Z 12006KT 19/11 A2992 RMK A01 T01920113  RH  060%=      5-min Rain = 0
KLA1 180348Z 12005KT 19/11 A2992 RMK A01 T01920113  RH  060%=      5-min Rain = 0
KLA1 180349Z 12007KT 19/11 A2992 RMK A01 T01920113  RH  060%=      5-min Rain = 0
KLA1 180350Z 12008KT 19/11 A2992 RMK A01 T01920113  RH  060%=      5-min Rain = 0
KLA1 180351Z 12008KT 19/11 A2992 RMK A01 T01920113  RH  060%=      5-min Rain = 0
KLA1 180352Z 12005KT 19/11 A2993 RMK A01 T01920113  RH  060%=      5-min Rain = 0
KLA1 180353Z 12006KT 19/11 A2993 RMK A01 T01920113  RH  060%=      5-min Rain = 0
KLA1 180354Z 12006KT 19/11 A2993 RMK A01 T01910113  RH  060%=      5-min Rain = 0
KLA1 180355Z 12008KT 19/11 A2993 RMK A01 T01910113  RH  061%=      5-min Rain = 0
KLA1 180356Z 12007KT 19/11 A2993 RMK A01 T01910113  RH  060%=      5-min Rain = 0
KLA1 180357Z 12007KT 19/11 A2993 RMK A01 T01910113  RH  061%=      5-min Rain = 0
KLA1 180358Z 12007KT 19/11 A2993 RMK A01 T01910113  RH  061%=      5-min Rain = 0
KLA1 180359Z 12007KT 19/11 A2993 RMK A01 T01910113  RH  061%=      5-min Rain = 0
KLA1 180400Z 12007KT 19/11 A2993 RMK A01 T01900113  RH  061%=      5-min Rain = 0
KLA1 180401Z 12007KT 19/11 A2993 RMK A01 T01900113  RH  061%=      5-min Rain = 0
KLA1 180402Z 12005KT 19/11 A2993 RMK A01 T01890112  RH  061%=      5-min Rain = 0
KLA1 180403Z 11006KT 19/11 A2993 RMK A01 T01890112  RH  061%=      5-min Rain = 0
KLA1 180404Z 12006KT 19/11 A2992 RMK A01 T01890112  RH  061%=      5-min Rain = 0
KLA1 180405Z 12007KT 19/11 A2992 RMK A01 T01890112  RH  061%=      5-min Rain = 0
KLA1 180406Z 12009KT 19/11 A2992 RMK A01 T01890112  RH  061%=      5-min Rain = 0
KLA1 180407Z 11007KT 19/11 A2992 RMK A01 T01890112  RH  061%=      5-min Rain = 0
KLA1 180408Z 12008KT 19/11 A2992 RMK A01 T01890112  RH  061%=      5-min Rain = 0
KLA1 180409Z 12007KT 19/11 A2992 RMK A01 T01890112  RH  061%=      5-min Rain = 0
KLA1 180410Z 11006KT 19/11 A2992 RMK A01 T01900112  RH  061%=      5-min Rain = 0
KLA1 180411Z 12007KT 19/11 A2992 RMK A01 T01890112  RH  061%=      5-min Rain = 0
KLA1 180412Z 12006KT 19/11 A2992 RMK A01 T01880111  RH  061%=      5-min Rain = 0
KLA1 180413Z 12007KT 19/11 A2992 RMK A01 T01880112  RH  061%=      5-min Rain = 0
KLA1 180414Z 11007KT 19/11 A2992 RMK A01 T01880111  RH  061%=      5-min Rain = 0
KLA1 180415Z 12006KT 19/11 A2992 RMK A01 T01880111  RH  061%=      5-min Rain = 0
KLA1 180416Z 12007KT 19/11 A2992 RMK A01 T01880111  RH  061%=      5-min Rain = 0
KLA1 180417Z 12007KT 19/11 A2992 RMK A01 T01870112  RH  061%=      5-min Rain = 0
KLA1 180418Z 12006KT 19/11 A2992 RMK A01 T01870111  RH  061%=      5-min Rain = 0
KLA1 180419Z 12007KT 19/11 A2992 RMK A01 T01870111  RH  061%=      5-min Rain = 0
KLA1 180420Z 12005KT 19/11 A2992 RMK A01 T01870111  RH  061%=      5-min Rain = 0
KLA1 180421Z 12005KT 19/11 A2992 RMK A01 T01870111  RH  061%=      5-min Rain = 0
KLA1 180422Z 12006KT 19/11 A2992 RMK A01 T01860111  RH  061%=      5-min Rain = 0
KLA1 180423Z 11006KT 19/11 A2992 RMK A01 T01860111  RH  062%=      5-min Rain = 0
KLA1 180424Z 11006KT 19/11 A2992 RMK A01 T01860111  RH  062%=      5-min Rain = 0
KLA1 180425Z 12006KT 19/11 A2992 RMK A01 T01850110  RH  062%=      5-min Rain = 0
KLA1 180426Z 12007KT 19/11 A2992 RMK A01 T01850110  RH  062%=      5-min Rain = 0
KLA1 180427Z 12006KT 19/11 A2992 RMK A01 T01850110  RH  062%=      5-min Rain = 0
KLA1 180428Z 11006KT 19/11 A2992 RMK A01 T01850110  RH  062%=      5-min Rain = 0
KLA1 180429Z 11005KT 19/11 A2992 RMK A01 T01850110  RH  062%=      5-min Rain = 0
KLA1 180430Z 11006KT 19/11 A2992 RMK A01 T01850110  RH  061%=      5-min Rain = 0
KLA1 180431Z 12006KT 19/11 A2992 RMK A01 T01850109  RH  061%=      5-min Rain = 0
KLA1 180432Z 12006KT 19/11 A2992 RMK A01 T01860110  RH  061%=      5-min Rain = 0
KLA1 180433Z 11006KT 19/11 A2992 RMK A01 T01850109  RH  061%=      5-min Rain = 0
KLA1 180434Z 11006KT 19/11 A2992 RMK A01 T01850109  RH  061%=      5-min Rain = 0
KLA1 180435Z 12006KT 19/11 A2992 RMK A01 T01850109  RH  061%=      5-min Rain = 0
KLA1 180436Z 11007KT 19/11 A2992 RMK A01 T01850109  RH  061%=      5-min Rain = 0
KLA1 180437Z 12008KT 19/11 A2992 RMK A01 T01850109  RH  061%=      5-min Rain = 0
KLA1 180438Z 11008KT 19/11 A2992 RMK A01 T01850108  RH  061%=      5-min Rain = 0
KLA1 180439Z 12006KT 19/11 A2992 RMK A01 T01850108  RH  061%=      5-min Rain = 0
KLA1 180440Z 12008KT 19/11 A2992 RMK A01 T01850108  RH  061%=      5-min Rain = 0
KLA1 180441Z 11007KT 19/11 A2992 RMK A01 T01850108  RH  061%=      5-min Rain = 0
KLA1 180442Z 11009KT 19/11 A2992 RMK A01 T01850107  RH  061%=      5-min Rain = 0
KLA1 180443Z 12008KT 19/11 A2992 RMK A01 T01850108  RH  061%=      5-min Rain = 0
KLA1 180444Z 11007KT 19/11 A2992 RMK A01 T01850108  RH  060%=      5-min Rain = 0
KLA1 180445Z 11006KT 19/11 A2992 RMK A01 T01850107  RH  060%=      5-min Rain = 0
KLA1 180446Z 12009KT 19/11 A2992 RMK A01 T01850107  RH  060%=      5-min Rain = 0
KLA1 180447Z 11007KT 19/11 A2992 RMK A01 T01850107  RH  060%=      5-min Rain = 0
KLA1 180448Z 11006KT 19/11 A2992 RMK A01 T01850107  RH  060%=      5-min Rain = 0
KLA1 180449Z 11006KT 19/11 A2992 RMK A01 T01850107  RH  060%=      5-min Rain = 0
KLA1 180450Z 11007KT 18/11 A2992 RMK A01 T01840107  RH  060%=      5-min Rain = 0
KLA1 180451Z 11006KT 18/11 A2992 RMK A01 T01840107  RH  061%=      5-min Rain = 0
KLA1 180452Z 11007KT 18/11 A2992 RMK A01 T01840107  RH  061%=      5-min Rain = 0
KLA1 180453Z 11008KT 18/11 A2992 RMK A01 T01840106  RH  061%=      5-min Rain = 0
KLA1 180454Z 11008KT 18/11 A2992 RMK A01 T01840106  RH  060%=      5-min Rain = 0
KLA1 180455Z 11008KT 18/11 A2992 RMK A01 T01840106  RH  060%=      5-min Rain = 0
KLA1 180456Z 11007KT 18/11 A2992 RMK A01 T01840105  RH  060%=      5-min Rain = 0
KLA1 180457Z 11008KT 18/11 A2992 RMK A01 T01840106  RH  060%=      5-min Rain = 0
KLA1 180458Z 11008KT 18/11 A2992 RMK A01 T01840106  RH  060%=      5-min Rain = 0
KLA1 180459Z 11007KT 18/11 A2992 RMK A01 T01840106  RH  060%=      5-min Rain = 0

Page generated in 0.0864 seconds.